Time,TemperatureF,DewpointF,PressureIn,WindDirection,WindDirectionDegrees,WindSpeedMPH,WindSpeedGustMPH,Humidity,HourlyPrecipIn,Conditions,Clouds,dailyrainin,SoftwareType,DateUTC
2013-06-11 00:00:00,82.2,74.3,30.03,ESE,112,3.1,3.1,77,0.00,,---,0.00,VWS V13.01,2013-06-11 04:00:00,
2013-06-11 00:01:00,82.2,74.3,30.03,SE,135,2.0,2.0,77,0.00,,---,0.00,VWS V13.01,2013-06-11 04:01:00,
2013-06-11 00:06:00,82.2,74.3,30.02,ENE,68,4.6,4.6,77,0.00,,---,0.00,VWS V13.01,2013-06-11 04:06:00,
2013-06-11 00:07:00,82.2,74.3,30.02,ESE,112,5.8,5.8,77,0.00,,---,0.00,VWS V13.01,2013-06-11 04:07:00,
2013-06-11 00:11:00,82.2,74.3,30.02,NE,45,0.0,0.0,77,0.00,,---,0.00,VWS V13.01,2013-06-11 04:11:00,
2013-06-11 00:12:00,82.2,74.3,30.02,East,90,0.0,0.0,77,0.00,,---,0.00,VWS V13.01,2013-06-11 04:12:00,
2013-06-11 00:16:00,82.2,74.3,30.02,East,90,1.7,1.7,77,0.00,,---,0.00,VWS V13.01,2013-06-11 04:16:00,
2013-06-11 00:17:00,82.2,74.3,30.02,SE,135,0.8,0.8,77,0.00,,---,0.00,VWS V13.01,2013-06-11 04:17:00,
2013-06-11 00:21:00,82.2,74.7,30.02,SE,135,7.1,7.1,78,0.00,,---,0.00,VWS V13.01,2013-06-11 04:21:00,
2013-06-11 00:22:00,82.2,74.7,30.02,ENE,68,0.0,0.0,78,0.00,,---,0.00,VWS V13.01,2013-06-11 04:22:00,
2013-06-11 00:26:00,82.2,74.7,30.02,ENE,68,0.0,0.0,78,0.00,,---,0.00,VWS V13.01,2013-06-11 04:26:00,
2013-06-11 00:27:00,82.2,74.7,30.02,East,90,5.8,5.8,78,0.00,,---,0.00,VWS V13.01,2013-06-11 04:27:00,
2013-06-11 00:31:00,82.2,74.7,30.01,SE,135,4.0,4.0,78,0.00,,---,0.00,VWS V13.01,2013-06-11 04:31:00,
2013-06-11 00:32:00,82.2,74.3,30.01,SE,135,2.9,2.9,77,0.00,,---,0.00,VWS V13.01,2013-06-11 04:32:00,
2013-06-11 00:36:00,82.0,74.1,30.01,ESE,112,0.0,0.0,77,0.00,,---,0.00,VWS V13.01,2013-06-11 04:36:00,
2013-06-11 00:37:00,82.0,74.1,30.01,ENE,68,0.0,0.0,77,0.00,,---,0.00,VWS V13.01,2013-06-11 04:37:00,
2013-06-11 00:41:00,82.0,74.1,30.01,East,90,2.4,2.4,77,0.00,,---,0.00,VWS V13.01,2013-06-11 04:41:00,
2013-06-11 00:42:00,82.0,74.1,30.01,ESE,112,5.8,5.8,77,0.00,,---,0.00,VWS V13.01,2013-06-11 04:42:00,
2013-06-11 00:46:00,82.0,74.1,30.00,SSW,202,0.0,0.0,77,0.00,,---,0.00,VWS V13.01,2013-06-11 04:46:00,
2013-06-11 00:47:00,82.0,74.1,30.01,SSE,158,2.4,2.4,77,0.00,,---,0.00,VWS V13.01,2013-06-11 04:47:00,
2013-06-11 00:51:00,82.0,74.1,30.01,South,180,1.1,1.1,77,0.00,,---,0.00,VWS V13.01,2013-06-11 04:51:00,
2013-06-11 00:52:00,82.0,74.1,30.01,SE,135,3.1,3.1,77,0.00,,---,0.00,VWS V13.01,2013-06-11 04:52:00,
2013-06-11 00:56:00,82.0,74.1,30.00,ESE,112,4.2,4.2,77,0.00,,---,0.00,VWS V13.01,2013-06-11 04:56:00,
2013-06-11 00:57:00,82.0,74.5,30.00,SE,135,0.0,0.0,78,0.00,,---,0.00,VWS V13.01,2013-06-11 04:57:00,
2013-06-11 00:58:00,82.0,74.5,30.00,ESE,112,0.8,0.8,78,0.00,,---,0.00,VWS V13.01,2013-06-11 04:58:00,
2013-06-11 01:01:00,82.0,74.5,30.00,ENE,68,6.0,6.0,78,0.00,,---,0.00,VWS V13.01,2013-06-11 05:01:00,
2013-06-11 01:02:00,82.0,74.5,30.00,East,90,0.0,0.0,78,0.00,,---,0.00,VWS V13.01,2013-06-11 05:02:00,
2013-06-11 01:03:00,82.0,74.5,30.00,SE,135,0.0,0.0,78,0.00,,---,0.00,VWS V13.01,2013-06-11 05:03:00,
2013-06-11 01:04:00,82.0,74.5,30.00,ESE,112,2.4,2.4,78,0.00,,---,0.00,VWS V13.01,2013-06-11 05:04:00,
2013-06-11 01:06:00,82.0,74.5,30.00,ENE,68,0.0,0.0,78,0.00,,---,0.00,VWS V13.01,2013-06-11 05:06:00,
2013-06-11 01:07:00,82.0,74.5,30.00,East,90,2.0,2.0,78,0.00,,---,0.00,VWS V13.01,2013-06-11 05:07:00,
2013-06-11 01:08:00,82.0,74.5,30.00,East,90,2.0,2.0,78,0.00,,---,0.00,VWS V13.01,2013-06-11 05:08:00,
2013-06-11 01:09:00,82.0,74.5,30.00,ENE,68,1.5,1.5,78,0.00,,---,0.00,VWS V13.01,2013-06-11 05:09:00,
2013-06-11 01:11:00,82.0,74.5,30.00,ESE,112,2.4,2.4,78,0.00,,---,0.00,VWS V13.01,2013-06-11 05:11:00,
2013-06-11 01:12:00,82.0,74.5,30.00,NE,45,4.4,4.4,78,0.00,,---,0.00,VWS V13.01,2013-06-11 05:12:00,
2013-06-11 01:13:00,82.0,74.5,30.00,NE,45,4.4,4.4,78,0.00,,---,0.00,VWS V13.01,2013-06-11 05:13:00,
2013-06-11 01:14:00,82.0,74.5,30.00,ENE,68,0.0,0.0,78,0.00,,---,0.00,VWS V13.01,2013-06-11 05:14:00,
2013-06-11 01:16:00,82.0,74.5,30.00,SE,135,0.0,2.0,78,0.00,,---,0.00,VWS V13.01,2013-06-11 05:16:00,
2013-06-11 01:18:00,82.0,74.5,30.00,ENE,68,0.0,0.0,78,0.00,,---,0.00,VWS V13.01,2013-06-11 05:18:00,
2013-06-11 01:19:00,82.0,74.5,30.00,ENE,68,4.6,4.6,78,0.00,,---,0.00,VWS V13.01,2013-06-11 05:19:00,
2013-06-11 01:22:00,82.0,74.5,29.99,East,90,6.9,6.9,78,0.00,,---,0.00,VWS V13.01,2013-06-11 05:22:00,
2013-06-11 01:23:00,81.8,74.3,29.99,NE,45,0.0,0.0,78,0.00,,---,0.00,VWS V13.01,2013-06-11 05:23:00,
2013-06-11 01:24:00,81.8,74.3,29.99,ENE,68,6.9,6.9,78,0.00,,---,0.00,VWS V13.01,2013-06-11 05:24:00,
2013-06-11 01:27:00,81.6,74.1,29.99,East,90,6.9,6.9,78,0.00,,---,0.00,VWS V13.01,2013-06-11 05:27:00,
2013-06-11 01:28:00,81.6,74.1,29.99,ENE,68,5.1,5.1,78,0.00,,---,0.00,VWS V13.01,2013-06-11 05:28:00,
2013-06-11 01:29:00,81.6,74.1,29.99,East,90,4.4,4.4,78,0.00,,---,0.00,VWS V13.01,2013-06-11 05:29:00,
2013-06-11 01:32:00,81.6,74.1,29.99,East,90,0.0,0.0,78,0.00,,---,0.00,VWS V13.01,2013-06-11 05:32:00,
2013-06-11 01:33:00,81.6,74.1,29.99,SE,135,3.5,3.5,78,0.00,,---,0.00,VWS V13.01,2013-06-11 05:33:00,
2013-06-11 01:34:00,81.6,74.5,29.99,East,90,0.0,0.0,79,0.00,,---,0.00,VWS V13.01,2013-06-11 05:34:00,
2013-06-11 01:37:00,81.6,74.5,29.99,ESE,112,0.0,0.0,79,0.00,,---,0.00,VWS V13.01,2013-06-11 05:37:00,
2013-06-11 01:38:00,81.6,74.5,29.98,ESE,112,0.6,0.6,79,0.00,,---,0.00,VWS V13.01,2013-06-11 05:38:00,
2013-06-11 01:39:00,81.6,74.5,29.98,SE,135,0.0,0.0,79,0.00,,---,0.00,VWS V13.01,2013-06-11 05:39:00,
2013-06-11 01:42:00,81.6,74.5,29.99,ENE,68,1.7,1.7,79,0.00,,---,0.00,VWS V13.01,2013-06-11 05:42:00,
2013-06-11 01:43:00,81.6,74.5,29.99,ENE,68,5.5,5.5,79,0.00,,---,0.00,VWS V13.01,2013-06-11 05:43:00,
2013-06-11 01:44:00,81.6,74.5,29.98,SE,135,0.0,0.0,79,0.00,,---,0.00,VWS V13.01,2013-06-11 05:44:00,
2013-06-11 01:47:00,81.6,74.5,29.98,East,90,0.8,0.8,79,0.00,,---,0.00,VWS V13.01,2013-06-11 05:47:00,
2013-06-11 01:48:00,81.6,74.5,29.98,SE,135,0.0,0.0,79,0.00,,---,0.00,VWS V13.01,2013-06-11 05:48:00,
2013-06-11 01:49:00,81.6,74.5,29.98,SSE,158,2.0,2.0,79,0.00,,---,0.00,VWS V13.01,2013-06-11 05:49:00,
2013-06-11 01:52:00,81.6,74.5,29.98,ENE,68,2.4,2.4,79,0.00,,---,0.00,VWS V13.01,2013-06-11 05:52:00,
2013-06-11 01:53:00,81.6,74.5,29.98,ENE,68,0.0,0.0,79,0.00,,---,0.00,VWS V13.01,2013-06-11 05:53:00,
2013-06-11 01:55:00,81.6,74.5,29.98,ESE,112,3.1,3.1,79,0.00,,---,0.00,VWS V13.01,2013-06-11 05:55:00,
2013-06-11 01:57:00,81.6,74.5,29.98,East,90,2.6,2.6,79,0.00,,---,0.00,VWS V13.01,2013-06-11 05:57:00,
2013-06-11 01:58:00,81.6,74.5,29.98,NNE,22,0.0,0.0,79,0.00,,---,0.00,VWS V13.01,2013-06-11 05:58:00,
2013-06-11 02:00:00,81.6,74.5,29.98,ENE,68,4.0,4.0,79,0.00,,---,0.00,VWS V13.01,2013-06-11 06:00:00,
2013-06-11 02:02:00,81.6,74.5,29.98,SE,135,2.2,2.2,79,0.00,,---,0.00,VWS V13.01,2013-06-11 06:02:00,
2013-06-11 02:03:00,81.6,74.5,29.98,ESE,112,8.2,8.2,79,0.00,,---,0.00,VWS V13.01,2013-06-11 06:03:00,
2013-06-11 02:05:00,81.6,74.5,29.99,ENE,68,6.7,6.7,79,0.00,,---,0.00,VWS V13.01,2013-06-11 06:05:00,
2013-06-11 02:07:00,81.5,74.4,29.98,SE,135,1.3,1.3,79,0.00,,---,0.00,VWS V13.01,2013-06-11 06:07:00,
2013-06-11 02:08:00,81.5,74.4,29.98,ENE,68,0.8,0.8,79,0.00,,---,0.00,VWS V13.01,2013-06-11 06:08:00,
2013-06-11 02:10:00,81.5,74.4,29.98,East,90,4.9,4.9,79,0.00,,---,0.00,VWS V13.01,2013-06-11 06:10:00,
2013-06-11 02:12:00,81.5,74.4,29.98,SW,225,2.0,2.0,79,0.00,,---,0.00,VWS V13.01,2013-06-11 06:12:00,
2013-06-11 02:13:00,81.5,74.4,29.98,South,180,2.4,2.4,79,0.00,,---,0.00,VWS V13.01,2013-06-11 06:13:00,
2013-06-11 02:15:00,81.5,74.4,29.98,NNE,22,0.0,0.0,79,0.00,,---,0.00,VWS V13.01,2013-06-11 06:15:00,
2013-06-11 02:17:00,81.5,74.4,29.98,ESE,112,4.0,4.0,79,0.00,,---,0.00,VWS V13.01,2013-06-11 06:17:00,
2013-06-11 02:18:00,81.5,74.4,29.98,East,90,5.1,5.1,79,0.00,,---,0.00,VWS V13.01,2013-06-11 06:18:00,
2013-06-11 02:19:00,81.5,74.4,29.98,East,90,5.1,5.1,79,0.00,,---,0.00,VWS V13.01,2013-06-11 06:19:00,
2013-06-11 02:20:00,81.5,74.4,29.98,East,90,4.0,4.0,79,0.00,,---,0.00,VWS V13.01,2013-06-11 06:20:00,
2013-06-11 02:22:00,81.5,74.4,29.98,ESE,112,3.5,3.5,79,0.00,,---,0.00,VWS V13.01,2013-06-11 06:22:00,
2013-06-11 02:23:00,81.5,74.4,29.98,East,90,0.0,0.0,79,0.00,,---,0.00,VWS V13.01,2013-06-11 06:23:00,
2013-06-11 02:24:00,81.5,74.4,29.98,East,90,0.0,0.0,79,0.00,,---,0.00,VWS V13.01,2013-06-11 06:24:00,
2013-06-11 02:25:00,81.5,74.4,29.98,SSE,158,2.0,2.0,79,0.00,,---,0.00,VWS V13.01,2013-06-11 06:25:00,
2013-06-11 02:27:00,81.5,74.4,29.98,SSE,158,1.5,1.5,79,0.00,,---,0.00,VWS V13.01,2013-06-11 06:27:00,
2013-06-11 02:28:00,81.5,74.4,29.98,ENE,68,0.0,0.0,79,0.00,,---,0.00,VWS V13.01,2013-06-11 06:28:00,
2013-06-11 02:29:00,81.5,74.4,29.98,ENE,68,0.0,0.0,79,0.00,,---,0.00,VWS V13.01,2013-06-11 06:29:00,
2013-06-11 02:30:00,81.5,74.4,29.98,ENE,68,0.0,0.0,79,0.00,,---,0.00,VWS V13.01,2013-06-11 06:30:00,
2013-06-11 02:33:00,81.6,74.8,29.98,East,90,5.1,5.1,80,0.00,,---,0.00,VWS V13.01,2013-06-11 06:33:00,
2013-06-11 02:34:00,81.5,74.7,29.98,ENE,68,4.6,4.6,80,0.00,,---,0.00,VWS V13.01,2013-06-11 06:34:00,
2013-06-11 02:35:00,81.6,74.8,29.98,SE,135,14.3,14.3,80,0.00,,---,0.00,VWS V13.01,2013-06-11 06:35:00,
2013-06-11 02:38:00,81.5,74.4,29.98,SSE,158,4.4,4.4,79,0.00,,---,0.00,VWS V13.01,2013-06-11 06:38:00,
2013-06-11 02:39:00,81.3,73.8,29.98,South,180,7.8,7.8,78,0.00,,---,0.00,VWS V13.01,2013-06-11 06:39:00,
2013-06-11 02:40:00,81.1,73.6,29.98,SSE,158,8.9,8.9,78,0.02,,---,0.02,VWS V13.01,2013-06-11 06:40:00,
2013-06-11 02:43:00,80.4,72.9,29.98,South,180,1.7,1.7,78,0.02,,---,0.02,VWS V13.01,2013-06-11 06:43:00,
2013-06-11 02:44:00,80.2,73.1,29.98,SE,135,3.3,3.3,79,0.02,,---,0.02,VWS V13.01,2013-06-11 06:44:00,
2013-06-11 02:45:00,79.8,72.7,29.98,SE,135,2.2,2.2,79,0.02,,---,0.02,VWS V13.01,2013-06-11 06:45:00,
2013-06-11 02:48:00,79.7,72.6,29.98,South,180,4.2,4.2,79,0.02,,---,0.02,VWS V13.01,2013-06-11 06:48:00,
2013-06-11 02:49:00,79.5,72.4,29.98,East,90,0.0,0.0,79,0.02,,---,0.02,VWS V13.01,2013-06-11 06:49:00,
2013-06-11 02:50:00,79.5,72.4,29.98,SSW,202,2.0,2.0,79,0.02,,---,0.02,VWS V13.01,2013-06-11 06:50:00,
2013-06-11 02:53:00,79.5,72.8,29.97,SSE,158,1.3,1.3,80,0.02,,---,0.02,VWS V13.01,2013-06-11 06:53:00,
2013-06-11 02:54:00,79.5,72.8,29.97,SE,135,0.0,0.0,80,0.02,,---,0.02,VWS V13.01,2013-06-11 06:54:00,
2013-06-11 02:55:00,79.5,72.8,29.98,SE,135,0.0,0.0,80,0.02,,---,0.02,VWS V13.01,2013-06-11 06:55:00,
2013-06-11 02:58:00,79.5,72.8,29.98,East,90,0.0,0.0,80,0.02,,---,0.02,VWS V13.01,2013-06-11 06:58:00,
2013-06-11 02:59:00,79.5,72.8,29.98,North,0,0.0,0.0,80,0.02,,---,0.02,VWS V13.01,2013-06-11 06:59:00,
2013-06-11 03:00:00,79.5,72.8,29.97,ESE,112,0.0,0.0,80,0.02,,---,0.02,VWS V13.01,2013-06-11 07:00:00,
2013-06-11 03:03:00,79.5,73.2,29.97,ENE,68,2.4,2.4,81,0.02,,---,0.02,VWS V13.01,2013-06-11 07:03:00,
2013-06-11 03:04:00,79.5,73.2,29.97,ENE,68,0.0,0.0,81,0.02,,---,0.02,VWS V13.01,2013-06-11 07:04:00,
2013-06-11 03:05:00,79.5,73.2,29.97,SSE,158,2.2,2.2,81,0.02,,---,0.02,VWS V13.01,2013-06-11 07:05:00,
2013-06-11 03:08:00,79.7,73.7,29.97,SE,135,1.3,1.3,82,0.02,,---,0.02,VWS V13.01,2013-06-11 07:08:00,
2013-06-11 03:09:00,79.7,73.7,29.97,SE,135,1.3,1.3,82,0.02,,---,0.02,VWS V13.01,2013-06-11 07:09:00,
2013-06-11 03:10:00,79.7,73.7,29.97,SSE,158,0.0,0.0,82,0.02,,---,0.02,VWS V13.01,2013-06-11 07:10:00,
2013-06-11 03:13:00,79.8,73.8,29.96,SSE,158,5.1,5.1,82,0.02,,---,0.02,VWS V13.01,2013-06-11 07:13:00,
2013-06-11 03:14:00,79.8,73.8,29.96,SSE,158,5.1,5.1,82,0.02,,---,0.02,VWS V13.01,2013-06-11 07:14:00,
2013-06-11 03:15:00,79.8,73.8,29.97,ESE,112,0.0,0.0,82,0.02,,---,0.02,VWS V13.01,2013-06-11 07:15:00,
2013-06-11 03:19:00,79.8,73.8,29.97,SE,135,0.0,0.0,82,0.02,,---,0.02,VWS V13.01,2013-06-11 07:19:00,
2013-06-11 03:20:00,79.8,74.2,29.97,East,90,1.5,1.5,83,0.02,,---,0.02,VWS V13.01,2013-06-11 07:20:00,
2013-06-11 03:24:00,80.0,74.4,29.96,SE,135,2.2,2.2,83,0.02,,---,0.02,VWS V13.01,2013-06-11 07:24:00,
2013-06-11 03:25:00,80.0,74.4,29.96,ESE,112,3.1,3.1,83,0.02,,---,0.02,VWS V13.01,2013-06-11 07:25:00,
2013-06-11 03:29:00,80.0,74.4,29.96,SSE,158,1.3,1.3,83,0.02,,---,0.02,VWS V13.01,2013-06-11 07:29:00,
2013-06-11 03:30:00,80.0,74.4,29.97,East,90,3.8,3.8,83,0.02,,---,0.02,VWS V13.01,2013-06-11 07:30:00,
2013-06-11 03:34:00,80.0,74.4,29.97,SE,135,2.0,2.0,83,0.02,,---,0.02,VWS V13.01,2013-06-11 07:34:00,
2013-06-11 03:35:00,80.2,74.6,29.97,South,180,2.0,2.0,83,0.02,,---,0.02,VWS V13.01,2013-06-11 07:35:00,
2013-06-11 03:39:00,80.2,74.6,29.97,SE,135,0.6,0.6,83,0.00,,---,0.02,VWS V13.01,2013-06-11 07:39:00,
2013-06-11 03:40:00,80.2,74.6,29.97,SSE,158,2.4,2.4,83,0.00,,---,0.02,VWS V13.01,2013-06-11 07:40:00,
2013-06-11 03:41:00,80.2,74.6,29.97,SSE,158,0.0,0.0,83,0.00,,---,0.02,VWS V13.01,2013-06-11 07:41:00,
2013-06-11 03:44:00,80.2,74.9,29.97,South,180,1.7,1.7,84,0.00,,---,0.02,VWS V13.01,2013-06-11 07:44:00,
2013-06-11 03:45:00,80.2,74.9,29.97,SE,135,2.4,2.4,84,0.00,,---,0.02,VWS V13.01,2013-06-11 07:45:00,
2013-06-11 03:46:00,80.2,74.9,29.97,SSE,158,0.0,0.0,84,0.00,,---,0.02,VWS V13.01,2013-06-11 07:46:00,
2013-06-11 03:49:00,80.2,74.9,29.97,SSE,158,0.0,0.0,84,0.00,,---,0.02,VWS V13.01,2013-06-11 07:49:00,
2013-06-11 03:50:00,80.2,74.9,29.97,ESE,112,5.5,5.5,84,0.00,,---,0.02,VWS V13.01,2013-06-11 07:50:00,
2013-06-11 03:51:00,80.2,74.9,29.98,SE,135,6.4,6.4,84,0.00,,---,0.02,VWS V13.01,2013-06-11 07:51:00,
2013-06-11 03:54:00,80.2,74.9,29.97,SE,135,4.4,4.4,84,0.00,,---,0.02,VWS V13.01,2013-06-11 07:54:00,
2013-06-11 03:55:00,80.2,74.9,29.97,SE,135,5.8,5.8,84,0.00,,---,0.02,VWS V13.01,2013-06-11 07:55:00,
2013-06-11 03:57:00,80.2,74.9,29.97,ESE,112,2.4,2.4,84,0.00,,---,0.02,VWS V13.01,2013-06-11 07:57:00,
2013-06-11 03:59:00,80.2,74.9,29.97,SE,135,1.7,1.7,84,0.00,,---,0.02,VWS V13.01,2013-06-11 07:59:00,
2013-06-11 04:00:00,80.2,74.9,29.97,SE,135,0.6,0.6,84,0.00,,---,0.02,VWS V13.01,2013-06-11 08:00:00,
2013-06-11 04:02:00,80.2,74.9,29.97,SE,135,4.4,4.4,84,0.00,,---,0.02,VWS V13.01,2013-06-11 08:02:00,
2013-06-11 04:04:00,80.2,74.9,29.97,SE,135,1.5,1.5,84,0.00,,---,0.02,VWS V13.01,2013-06-11 08:04:00,
2013-06-11 04:05:00,80.2,74.9,29.98,East,90,0.0,0.0,84,0.00,,---,0.02,VWS V13.01,2013-06-11 08:05:00,
2013-06-11 04:06:00,80.2,74.9,29.98,ESE,112,0.0,0.0,84,0.00,,---,0.02,VWS V13.01,2013-06-11 08:06:00,
2013-06-11 04:07:00,80.2,74.9,29.98,NE,45,2.0,2.0,84,0.00,,---,0.02,VWS V13.01,2013-06-11 08:07:00,
2013-06-11 04:09:00,80.2,74.9,29.98,SE,135,2.0,2.0,84,0.00,,---,0.02,VWS V13.01,2013-06-11 08:09:00,
2013-06-11 04:10:00,80.2,74.9,29.98,SE,135,1.7,1.7,84,0.00,,---,0.02,VWS V13.01,2013-06-11 08:10:00,
2013-06-11 04:11:00,80.2,74.9,29.98,SSW,202,1.7,1.7,84,0.00,,---,0.02,VWS V13.01,2013-06-11 08:11:00,
2013-06-11 04:12:00,80.0,74.7,29.98,SE,135,2.2,2.2,84,0.00,,---,0.02,VWS V13.01,2013-06-11 08:12:00,
2013-06-11 04:14:00,80.0,74.7,29.97,SE,135,5.8,5.8,84,0.00,,---,0.02,VWS V13.01,2013-06-11 08:14:00,
2013-06-11 04:15:00,80.0,74.7,29.97,SE,135,5.8,5.8,84,0.00,,---,0.02,VWS V13.01,2013-06-11 08:15:00,
2013-06-11 04:16:00,80.2,74.9,29.97,SSE,158,0.0,0.0,84,0.00,,---,0.02,VWS V13.01,2013-06-11 08:16:00,
2013-06-11 04:17:00,80.2,74.9,29.97,SE,135,3.8,3.8,84,0.00,,---,0.02,VWS V13.01,2013-06-11 08:17:00,
2013-06-11 04:19:00,80.0,74.7,29.97,SE,135,0.0,0.0,84,0.00,,---,0.02,VWS V13.01,2013-06-11 08:19:00,
2013-06-11 04:20:00,80.0,74.7,29.97,SE,135,0.0,0.0,84,0.00,,---,0.02,VWS V13.01,2013-06-11 08:20:00,
2013-06-11 04:21:00,80.0,74.7,29.97,ENE,68,2.0,2.0,84,0.00,,---,0.02,VWS V13.01,2013-06-11 08:21:00,
2013-06-11 04:23:00,80.2,74.9,29.98,SSE,158,2.4,2.4,84,0.00,,---,0.02,VWS V13.01,2013-06-11 08:23:00,
2013-06-11 04:24:00,80.0,74.7,29.98,South,180,2.4,2.4,84,0.00,,---,0.02,VWS V13.01,2013-06-11 08:24:00,
2013-06-11 04:25:00,80.0,74.7,29.98,South,180,2.4,2.4,84,0.00,,---,0.02,VWS V13.01,2013-06-11 08:25:00,
2013-06-11 04:26:00,80.0,74.7,29.98,South,180,2.0,2.0,84,0.00,,---,0.02,VWS V13.01,2013-06-11 08:26:00,
2013-06-11 04:28:00,80.2,74.9,29.97,SSE,158,0.0,0.0,84,0.00,,---,0.02,VWS V13.01,2013-06-11 08:28:00,
2013-06-11 04:30:00,80.0,74.7,29.98,SE,135,0.0,0.0,84,0.00,,---,0.02,VWS V13.01,2013-06-11 08:30:00,
2013-06-11 04:31:00,80.2,74.9,29.98,SE,135,2.0,2.0,84,0.00,,---,0.02,VWS V13.01,2013-06-11 08:31:00,
2013-06-11 04:33:00,80.0,74.7,29.97,SE,135,5.5,5.5,84,0.00,,---,0.02,VWS V13.01,2013-06-11 08:33:00,
2013-06-11 04:35:00,80.0,74.7,29.97,ESE,112,3.8,3.8,84,0.00,,---,0.02,VWS V13.01,2013-06-11 08:35:00,
2013-06-11 04:36:00,80.0,74.7,29.98,ESE,112,2.4,2.4,84,0.00,,---,0.02,VWS V13.01,2013-06-11 08:36:00,
2013-06-11 04:38:00,80.0,74.7,29.97,SE,135,2.4,2.4,84,0.00,,---,0.02,VWS V13.01,2013-06-11 08:38:00,
2013-06-11 04:40:00,79.8,74.5,29.97,ESE,112,0.0,0.0,84,0.00,,---,0.02,VWS V13.01,2013-06-11 08:40:00,
2013-06-11 04:41:00,79.8,74.5,29.97,ENE,68,7.6,7.6,84,0.00,,---,0.02,VWS V13.01,2013-06-11 08:41:00,
2013-06-11 04:43:00,79.8,74.5,29.97,East,90,0.0,0.0,84,0.00,,---,0.02,VWS V13.01,2013-06-11 08:43:00,
2013-06-11 04:45:00,80.0,74.7,29.97,South,180,0.0,0.0,84,0.00,,---,0.02,VWS V13.01,2013-06-11 08:45:00,
2013-06-11 04:46:00,80.0,74.4,29.97,ENE,68,4.4,4.4,83,0.00,,---,0.02,VWS V13.01,2013-06-11 08:46:00,
2013-06-11 04:48:00,80.0,74.4,29.97,ENE,68,4.6,4.6,83,0.00,,---,0.02,VWS V13.01,2013-06-11 08:48:00,
2013-06-11 04:50:00,80.0,74.4,29.97,ENE,68,1.7,1.7,83,0.00,,---,0.02,VWS V13.01,2013-06-11 08:50:00,
2013-06-11 04:51:00,80.0,74.4,29.97,ESE,112,2.9,2.9,83,0.00,,---,0.02,VWS V13.01,2013-06-11 08:51:00,
2013-06-11 04:53:00,80.2,74.6,29.98,SE,135,0.0,0.0,83,0.00,,---,0.02,VWS V13.01,2013-06-11 08:53:00,
2013-06-11 04:55:00,80.2,74.6,29.98,ENE,68,2.4,2.4,83,0.00,,---,0.02,VWS V13.01,2013-06-11 08:55:00,
2013-06-11 04:57:00,80.2,74.6,29.98,ENE,68,7.8,7.8,83,0.00,,---,0.02,VWS V13.01,2013-06-11 08:57:00,
2013-06-11 04:58:00,80.2,74.6,29.98,South,180,1.5,1.5,83,0.00,,---,0.02,VWS V13.01,2013-06-11 08:58:00,
2013-06-11 05:00:00,80.2,74.6,29.98,ENE,68,0.0,0.0,83,0.00,,---,0.02,VWS V13.01,2013-06-11 09:00:00,
2013-06-11 05:02:00,80.2,74.6,29.98,SSE,158,5.3,5.3,83,0.00,,---,0.02,VWS V13.01,2013-06-11 09:02:00,
2013-06-11 05:03:00,80.2,74.6,29.98,ENE,68,0.8,0.8,83,0.00,,---,0.02,VWS V13.01,2013-06-11 09:03:00,
2013-06-11 05:05:00,80.2,74.6,29.98,West,270,0.0,0.0,83,0.00,,---,0.02,VWS V13.01,2013-06-11 09:05:00,
2013-06-11 05:07:00,80.2,74.6,29.98,SSE,158,8.2,8.2,83,0.00,,---,0.02,VWS V13.01,2013-06-11 09:07:00,
2013-06-11 05:08:00,80.2,74.6,29.98,SSE,158,3.5,3.5,83,0.00,,---,0.02,VWS V13.01,2013-06-11 09:08:00,
2013-06-11 05:10:00,80.2,74.2,29.98,SE,135,3.8,3.8,82,0.00,,---,0.02,VWS V13.01,2013-06-11 09:10:00,
2013-06-11 05:12:00,80.2,74.2,29.98,ESE,112,5.8,5.8,82,0.00,,---,0.02,VWS V13.01,2013-06-11 09:12:00,
2013-06-11 05:13:00,80.4,74.4,29.98,East,90,2.4,2.4,82,0.00,,---,0.02,VWS V13.01,2013-06-11 09:13:00,
2013-06-11 05:15:00,80.2,74.2,29.98,NE,45,0.0,3.5,82,0.00,,---,0.02,VWS V13.01,2013-06-11 09:15:00,
2013-06-11 05:16:00,80.2,74.2,29.98,NE,45,0.0,0.0,82,0.00,,---,0.02,VWS V13.01,2013-06-11 09:16:00,
2013-06-11 05:17:00,80.2,74.2,29.98,SSE,158,1.7,1.7,82,0.00,,---,0.02,VWS V13.01,2013-06-11 09:17:00,
2013-06-11 05:18:00,80.2,74.2,29.98,ENE,68,0.0,0.0,82,0.00,,---,0.02,VWS V13.01,2013-06-11 09:18:00,
2013-06-11 05:20:00,80.2,74.2,29.98,SE,135,4.4,4.4,82,0.00,,---,0.02,VWS V13.01,2013-06-11 09:20:00,
2013-06-11 05:21:00,80.2,74.2,29.98,SE,135,4.4,4.4,82,0.00,,---,0.02,VWS V13.01,2013-06-11 09:21:00,
2013-06-11 05:22:00,80.2,74.2,29.98,ESE,112,4.6,4.6,82,0.00,,---,0.02,VWS V13.01,2013-06-11 09:22:00,
2013-06-11 05:23:00,80.2,74.2,29.98,SW,225,0.0,0.0,82,0.00,,---,0.02,VWS V13.01,2013-06-11 09:23:00,
2013-06-11 05:25:00,80.2,74.2,29.99,East,90,0.0,0.0,82,0.00,,---,0.02,VWS V13.01,2013-06-11 09:25:00,
2013-06-11 05:26:00,80.2,74.2,29.99,East,90,0.0,0.0,82,0.00,,---,0.02,VWS V13.01,2013-06-11 09:26:00,
2013-06-11 05:27:00,80.2,74.2,29.99,SE,135,2.9,2.9,82,0.00,,---,0.02,VWS V13.01,2013-06-11 09:27:00,
2013-06-11 05:28:00,80.2,74.2,29.99,SSE,158,6.2,6.2,82,0.00,,---,0.02,VWS V13.01,2013-06-11 09:28:00,
2013-06-11 05:30:00,80.2,74.2,29.99,SW,225,0.0,0.0,82,0.00,,---,0.02,VWS V13.01,2013-06-11 09:30:00,
2013-06-11 05:31:00,80.2,74.2,29.99,SW,225,0.0,0.0,82,0.00,,---,0.02,VWS V13.01,2013-06-11 09:31:00,
2013-06-11 05:32:00,80.2,74.2,29.99,ENE,68,4.2,4.2,82,0.00,,---,0.02,VWS V13.01,2013-06-11 09:32:00,
2013-06-11 05:33:00,80.2,74.2,29.99,East,90,0.0,0.0,82,0.00,,---,0.02,VWS V13.01,2013-06-11 09:33:00,
2013-06-11 05:35:00,80.2,74.2,29.99,ENE,68,3.5,3.5,82,0.00,,---,0.02,VWS V13.01,2013-06-11 09:35:00,
2013-06-11 05:36:00,80.2,74.2,29.99,ENE,68,3.5,3.5,82,0.00,,---,0.02,VWS V13.01,2013-06-11 09:36:00,
2013-06-11 05:37:00,80.2,74.2,29.99,SE,135,3.5,3.5,82,0.00,,---,0.02,VWS V13.01,2013-06-11 09:37:00,
2013-06-11 05:39:00,80.2,74.2,29.99,East,90,0.0,0.0,82,0.00,,---,0.02,VWS V13.01,2013-06-11 09:39:00,
2013-06-11 05:41:00,80.2,74.2,29.99,SE,135,2.4,2.4,82,0.00,,---,0.02,VWS V13.01,2013-06-11 09:41:00,
2013-06-11 05:42:00,80.2,74.2,29.99,ESE,112,0.0,0.0,82,0.00,,---,0.02,VWS V13.01,2013-06-11 09:42:00,
2013-06-11 05:44:00,80.2,74.2,29.99,SSE,158,3.1,3.1,82,0.00,,---,0.02,VWS V13.01,2013-06-11 09:44:00,
2013-06-11 05:46:00,80.2,74.2,29.99,SE,135,3.1,3.1,82,0.00,,---,0.02,VWS V13.01,2013-06-11 09:46:00,
2013-06-11 05:47:00,80.2,73.8,29.99,East,90,0.0,0.0,81,0.00,,---,0.02,VWS V13.01,2013-06-11 09:47:00,
2013-06-11 05:49:00,80.2,73.8,29.99,ESE,112,5.1,5.1,81,0.00,,---,0.02,VWS V13.01,2013-06-11 09:49:00,
2013-06-11 05:51:00,80.2,73.8,29.99,SE,135,7.1,7.1,81,0.00,,---,0.02,VWS V13.01,2013-06-11 09:51:00,
2013-06-11 05:52:00,80.2,73.8,29.99,ESE,112,0.0,0.0,81,0.00,,---,0.02,VWS V13.01,2013-06-11 09:52:00,
2013-06-11 05:54:00,80.2,73.8,29.99,ESE,112,0.0,0.0,81,0.00,,---,0.02,VWS V13.01,2013-06-11 09:54:00,
2013-06-11 05:56:00,80.2,73.8,29.99,SSE,158,4.2,4.2,81,0.00,,---,0.02,VWS V13.01,2013-06-11 09:56:00,
2013-06-11 05:57:00,80.2,73.8,30.00,SE,135,0.0,0.0,81,0.00,,---,0.02,VWS V13.01,2013-06-11 09:57:00,
2013-06-11 05:59:00,80.2,73.8,30.00,SE,135,3.8,3.8,81,0.00,,---,0.02,VWS V13.01,2013-06-11 09:59:00,
2013-06-11 06:01:00,80.2,74.2,30.00,SE,135,3.5,3.5,82,0.00,,---,0.02,VWS V13.01,2013-06-11 10:01:00,
2013-06-11 06:03:00,80.2,74.2,30.00,SSE,158,3.1,3.1,82,0.00,,---,0.02,VWS V13.01,2013-06-11 10:03:00,
2013-06-11 06:04:00,80.2,74.2,30.00,SE,135,3.8,3.8,82,0.00,,---,0.02,VWS V13.01,2013-06-11 10:04:00,
2013-06-11 06:06:00,80.2,74.2,29.99,SE,135,2.0,2.0,82,0.00,,---,0.02,VWS V13.01,2013-06-11 10:06:00,
2013-06-11 06:08:00,80.2,74.2,29.99,ESE,112,9.8,9.8,82,0.00,,---,0.02,VWS V13.01,2013-06-11 10:08:00,
2013-06-11 06:09:00,80.4,74.4,30.00,SE,135,4.4,4.4,82,0.00,,---,0.02,VWS V13.01,2013-06-11 10:09:00,
2013-06-11 06:11:00,80.4,74.4,30.00,ENE,68,2.9,2.9,82,0.00,,---,0.02,VWS V13.01,2013-06-11 10:11:00,
2013-06-11 06:12:00,80.4,74.4,30.00,ESE,112,0.0,0.0,82,0.00,,---,0.02,VWS V13.01,2013-06-11 10:12:00,
2013-06-11 06:13:00,80.2,74.2,30.00,SSE,158,3.8,3.8,82,0.00,,---,0.02,VWS V13.01,2013-06-11 10:13:00,
2013-06-11 06:14:00,80.4,74.4,30.00,ESE,112,5.3,5.3,82,0.00,,---,0.02,VWS V13.01,2013-06-11 10:14:00,
2013-06-11 06:16:00,80.4,74.4,30.00,SE,135,6.0,6.0,82,0.00,,---,0.02,VWS V13.01,2013-06-11 10:16:00,
2013-06-11 06:17:00,80.4,74.4,30.00,SSE,158,3.5,3.5,82,0.00,,---,0.02,VWS V13.01,2013-06-11 10:17:00,
2013-06-11 06:18:00,80.4,74.4,30.00,SSE,158,0.0,0.0,82,0.00,,---,0.02,VWS V13.01,2013-06-11 10:18:00,
2013-06-11 06:19:00,80.4,74.4,30.01,South,180,1.1,1.1,82,0.00,,---,0.02,VWS V13.01,2013-06-11 10:19:00,
2013-06-11 06:21:00,80.4,74.4,30.01,SSE,158,2.0,3.8,82,0.00,,---,0.02,VWS V13.01,2013-06-11 10:21:00,
2013-06-11 06:22:00,80.4,74.4,30.01,SSE,158,2.0,2.0,82,0.00,,---,0.02,VWS V13.01,2013-06-11 10:22:00,
2013-06-11 06:23:00,80.4,74.4,30.01,SSE,158,2.2,2.2,82,0.00,,---,0.02,VWS V13.01,2013-06-11 10:23:00,
2013-06-11 06:25:00,80.4,74.4,30.00,SE,135,1.5,1.5,82,0.00,,---,0.02,VWS V13.01,2013-06-11 10:25:00,
2013-06-11 06:26:00,80.4,74.4,30.00,SSE,158,1.7,1.7,82,0.00,,---,0.02,VWS V13.01,2013-06-11 10:26:00,
2013-06-11 06:27:00,80.4,74.4,30.00,SSE,158,1.7,1.7,82,0.00,,---,0.02,VWS V13.01,2013-06-11 10:27:00,
2013-06-11 06:28:00,80.4,74.4,30.00,SE,135,1.5,1.5,82,0.00,,---,0.02,VWS V13.01,2013-06-11 10:28:00,
2013-06-11 06:30:00,80.4,74.4,30.00,SSE,158,1.7,1.7,82,0.00,,---,0.02,VWS V13.01,2013-06-11 10:30:00,
2013-06-11 06:32:00,80.4,74.4,30.01,South,180,0.0,0.0,82,0.00,,---,0.02,VWS V13.01,2013-06-11 10:32:00,
2013-06-11 06:33:00,80.4,74.4,30.01,ESE,112,0.0,0.0,82,0.00,,---,0.02,VWS V13.01,2013-06-11 10:33:00,
2013-06-11 06:35:00,80.4,74.4,30.01,ESE,112,3.8,3.8,82,0.00,,---,0.02,VWS V13.01,2013-06-11 10:35:00,
2013-06-11 06:37:00,80.4,74.4,30.01,SSE,158,1.5,1.5,82,0.00,,---,0.02,VWS V13.01,2013-06-11 10:37:00,
2013-06-11 06:38:00,80.4,74.8,30.01,SE,135,0.8,0.8,83,0.00,,---,0.02,VWS V13.01,2013-06-11 10:38:00,
2013-06-11 06:40:00,80.4,74.4,30.01,SSE,158,2.0,2.0,82,0.00,,---,0.02,VWS V13.01,2013-06-11 10:40:00,
2013-06-11 06:42:00,80.4,74.4,30.01,SE,135,4.2,4.2,82,0.00,,---,0.02,VWS V13.01,2013-06-11 10:42:00,
2013-06-11 06:43:00,80.4,74.4,30.01,SSE,158,3.8,3.8,82,0.00,,---,0.02,VWS V13.01,2013-06-11 10:43:00,
2013-06-11 06:45:00,80.4,74.8,30.01,SSE,158,0.0,0.0,83,0.00,,---,0.02,VWS V13.01,2013-06-11 10:45:00,
2013-06-11 06:47:00,80.4,74.8,30.01,South,180,1.7,1.7,83,0.00,,---,0.02,VWS V13.01,2013-06-11 10:47:00,
2013-06-11 06:48:00,80.4,74.8,30.01,SW,225,3.5,3.5,83,0.00,,---,0.02,VWS V13.01,2013-06-11 10:48:00,
2013-06-11 06:50:00,80.4,74.8,30.01,South,180,2.2,2.2,83,0.00,,---,0.02,VWS V13.01,2013-06-11 10:50:00,
2013-06-11 06:52:00,80.6,75.0,30.01,South,180,0.0,0.0,83,0.00,,---,0.02,VWS V13.01,2013-06-11 10:52:00,
2013-06-11 06:53:00,80.4,74.8,30.01,SE,135,0.0,0.0,83,0.00,,---,0.02,VWS V13.01,2013-06-11 10:53:00,
2013-06-11 06:55:00,80.6,75.0,30.02,SSW,202,4.0,4.0,83,0.00,,---,0.02,VWS V13.01,2013-06-11 10:55:00,
2013-06-11 06:57:00,80.6,75.0,30.02,SE,135,0.0,0.0,83,0.00,,---,0.02,VWS V13.01,2013-06-11 10:57:00,
2013-06-11 06:58:00,80.6,75.0,30.02,SE,135,0.0,0.0,83,0.00,,---,0.02,VWS V13.01,2013-06-11 10:58:00,
2013-06-11 07:00:00,80.6,75.0,30.02,SSE,158,4.2,4.2,83,0.00,,---,0.02,VWS V13.01,2013-06-11 11:00:00,
2013-06-11 07:03:00,80.7,75.1,30.02,South,180,3.3,3.3,83,0.00,,---,0.02,VWS V13.01,2013-06-11 11:03:00,
2013-06-11 07:05:00,80.6,74.6,30.02,South,180,2.9,2.9,82,0.00,,---,0.02,VWS V13.01,2013-06-11 11:05:00,
2013-06-11 07:08:00,80.7,74.7,30.02,SSE,158,0.0,0.0,82,0.00,,---,0.02,VWS V13.01,2013-06-11 11:08:00,
2013-06-11 07:10:00,80.7,74.7,30.02,South,180,2.0,2.0,82,0.00,,---,0.02,VWS V13.01,2013-06-11 11:10:00,
2013-06-11 07:13:00,80.7,74.7,30.02,ESE,112,0.0,0.0,82,0.00,,---,0.02,VWS V13.01,2013-06-11 11:13:00,
2013-06-11 07:15:00,80.9,74.9,30.03,SW,225,1.7,1.7,82,0.00,,---,0.02,VWS V13.01,2013-06-11 11:15:00,
2013-06-11 07:18:00,80.9,74.9,30.02,SE,135,0.0,0.0,82,0.00,,---,0.02,VWS V13.01,2013-06-11 11:18:00,
2013-06-11 07:20:00,81.1,75.1,30.02,SE,135,0.8,0.8,82,0.00,,---,0.02,VWS V13.01,2013-06-11 11:20:00,
2013-06-11 07:23:00,81.1,75.1,30.02,SSE,158,1.5,1.5,82,0.00,,---,0.02,VWS V13.01,2013-06-11 11:23:00,
2013-06-11 07:24:00,81.1,75.1,30.02,SE,135,1.7,1.7,82,0.00,,---,0.02,VWS V13.01,2013-06-11 11:24:00,
2013-06-11 07:25:00,81.1,75.1,30.02,SE,135,1.3,1.3,82,0.00,,---,0.02,VWS V13.01,2013-06-11 11:25:00,
2013-06-11 07:28:00,81.1,75.1,30.02,South,180,0.0,0.0,82,0.00,,---,0.02,VWS V13.01,2013-06-11 11:28:00,
2013-06-11 07:29:00,81.3,75.3,30.02,SE,135,0.0,0.0,82,0.00,,---,0.02,VWS V13.01,2013-06-11 11:29:00,
2013-06-11 07:30:00,81.3,74.9,30.03,SSE,158,0.0,0.0,81,0.00,,---,0.02,VWS V13.01,2013-06-11 11:30:00,
2013-06-11 07:33:00,81.3,74.9,30.02,South,180,1.5,1.5,81,0.00,,---,0.02,VWS V13.01,2013-06-11 11:33:00,
2013-06-11 07:34:00,81.3,74.9,30.02,ESE,112,0.0,0.0,81,0.00,,---,0.02,VWS V13.01,2013-06-11 11:34:00,
2013-06-11 07:35:00,81.5,75.1,30.02,South,180,0.0,0.0,81,0.00,,---,0.02,VWS V13.01,2013-06-11 11:35:00,
2013-06-11 07:38:00,81.6,75.2,30.02,ENE,68,2.2,2.2,81,0.00,,---,0.02,VWS V13.01,2013-06-11 11:38:00,
2013-06-11 07:39:00,81.6,75.2,30.02,SE,135,0.0,0.0,81,0.00,,---,0.02,VWS V13.01,2013-06-11 11:39:00,
2013-06-11 07:40:00,81.8,75.4,30.03,ENE,68,0.8,0.8,81,0.00,,---,0.02,VWS V13.01,2013-06-11 11:40:00,
2013-06-11 07:43:00,82.0,75.6,30.02,ENE,68,9.6,9.6,81,0.00,,---,0.02,VWS V13.01,2013-06-11 11:43:00,
2013-06-11 07:44:00,82.0,75.6,30.03,ENE,68,2.9,2.9,81,0.00,,---,0.02,VWS V13.01,2013-06-11 11:44:00,
2013-06-11 07:45:00,82.2,75.8,30.02,ESE,112,10.5,10.5,81,0.00,,---,0.02,VWS V13.01,2013-06-11 11:45:00,
2013-06-11 07:48:00,82.2,75.8,30.03,ENE,68,0.0,4.6,81,0.00,,---,0.02,VWS V13.01,2013-06-11 11:48:00,
2013-06-11 07:49:00,82.2,75.8,30.03,ENE,68,0.0,0.0,81,0.00,,---,0.02,VWS V13.01,2013-06-11 11:49:00,
2013-06-11 07:50:00,82.2,75.4,30.03,NE,45,1.1,1.1,80,0.00,,---,0.02,VWS V13.01,2013-06-11 11:50:00,
2013-06-11 07:53:00,82.2,75.4,30.03,ESE,112,8.0,8.0,80,0.00,,---,0.02,VWS V13.01,2013-06-11 11:53:00,
2013-06-11 07:54:00,82.2,75.4,30.03,ESE,112,8.0,8.0,80,0.00,,---,0.02,VWS V13.01,2013-06-11 11:54:00,
2013-06-11 07:56:00,82.2,75.8,30.03,East,90,5.8,5.8,81,0.00,,---,0.02,VWS V13.01,2013-06-11 11:56:00,
2013-06-11 07:58:00,82.2,75.8,30.03,South,180,0.0,0.0,81,0.00,,---,0.02,VWS V13.01,2013-06-11 11:58:00,
2013-06-11 07:59:00,82.2,75.8,30.03,South,180,0.0,0.0,81,0.00,,---,0.02,VWS V13.01,2013-06-11 11:59:00,
2013-06-11 08:01:00,82.0,75.6,30.03,East,90,4.4,4.4,81,0.00,,---,0.02,VWS V13.01,2013-06-11 12:01:00,
2013-06-11 08:03:00,82.0,75.6,30.02,ENE,68,4.9,4.9,81,0.00,,---,0.02,VWS V13.01,2013-06-11 12:03:00,
2013-06-11 08:04:00,82.0,75.6,30.02,ENE,68,4.9,4.9,81,0.00,,---,0.02,VWS V13.01,2013-06-11 12:04:00,
2013-06-11 08:07:00,81.6,75.2,30.03,North,0,0.0,0.0,81,0.06,,---,0.08,VWS V13.01,2013-06-11 12:07:00,
2013-06-11 08:08:00,81.6,75.2,30.02,ENE,68,0.0,0.0,81,0.08,,---,0.10,VWS V13.01,2013-06-11 12:08:00,
2013-06-11 08:09:00,81.6,75.2,30.02,ENE,68,0.0,0.0,81,0.08,,---,0.10,VWS V13.01,2013-06-11 12:09:00,
2013-06-11 08:12:00,81.5,75.5,30.03,ENE,68,0.8,0.8,82,0.08,,---,0.10,VWS V13.01,2013-06-11 12:12:00,
2013-06-11 08:13:00,81.5,75.8,30.02,SE,135,2.0,2.0,83,0.08,,---,0.10,VWS V13.01,2013-06-11 12:13:00,
2013-06-11 08:14:00,81.5,75.8,30.02,SE,135,2.0,2.0,83,0.08,,---,0.10,VWS V13.01,2013-06-11 12:14:00,
2013-06-11 08:17:00,81.5,75.8,30.03,ENE,68,0.0,0.0,83,0.08,,---,0.10,VWS V13.01,2013-06-11 12:17:00,
2013-06-11 08:19:00,81.6,75.9,30.03,SE,135,1.5,1.5,83,0.08,,---,0.10,VWS V13.01,2013-06-11 12:19:00,
2013-06-11 08:22:00,82.0,76.3,30.03,East,90,6.0,6.0,83,0.08,,---,0.10,VWS V13.01,2013-06-11 12:22:00,
2013-06-11 08:24:00,82.2,76.5,30.03,ENE,68,3.8,3.8,83,0.08,,---,0.10,VWS V13.01,2013-06-11 12:24:00,
2013-06-11 08:27:00,82.5,76.8,30.03,SSE,158,4.0,4.0,83,0.08,,---,0.10,VWS V13.01,2013-06-11 12:27:00,
2013-06-11 08:28:00,82.7,76.7,30.03,ENE,68,1.5,1.5,82,0.08,,---,0.10,VWS V13.01,2013-06-11 12:28:00,
2013-06-11 08:29:00,82.7,76.7,30.03,ENE,68,1.5,1.5,82,0.08,,---,0.10,VWS V13.01,2013-06-11 12:29:00,
2013-06-11 08:32:00,82.9,76.8,30.03,ENE,68,4.4,4.4,82,0.08,,---,0.10,VWS V13.01,2013-06-11 12:32:00,
2013-06-11 08:33:00,82.9,76.8,30.03,ENE,68,4.0,4.0,82,0.08,,---,0.10,VWS V13.01,2013-06-11 12:33:00,
2013-06-11 08:34:00,82.9,76.8,30.03,ENE,68,4.0,4.0,82,0.08,,---,0.10,VWS V13.01,2013-06-11 12:34:00,
2013-06-11 08:37:00,83.1,76.7,30.03,East,90,2.2,2.2,81,0.08,,---,0.10,VWS V13.01,2013-06-11 12:37:00,
2013-06-11 08:39:00,83.1,76.7,30.03,WSW,248,0.0,0.0,81,0.08,,---,0.10,VWS V13.01,2013-06-11 12:39:00,
2013-06-11 08:42:00,83.1,76.3,30.03,NNW,338,2.4,2.4,80,0.08,,---,0.10,VWS V13.01,2013-06-11 12:42:00,
2013-06-11 08:43:00,83.1,76.3,30.03,WNW,292,0.0,0.0,80,0.08,,---,0.10,VWS V13.01,2013-06-11 12:43:00,
2013-06-11 08:44:00,83.1,76.3,30.03,WNW,292,0.0,0.0,80,0.08,,---,0.10,VWS V13.01,2013-06-11 12:44:00,
2013-06-11 08:45:00,83.3,76.5,30.03,East,90,12.3,12.3,80,0.08,,---,0.10,VWS V13.01,2013-06-11 12:45:00,
2013-06-11 08:47:00,83.3,76.5,30.03,NE,45,1.7,1.7,80,0.08,,---,0.10,VWS V13.01,2013-06-11 12:47:00,
2013-06-11 08:48:00,83.4,76.6,30.03,ENE,68,0.0,0.0,80,0.08,,---,0.10,VWS V13.01,2013-06-11 12:48:00,
2013-06-11 08:49:00,83.4,76.6,30.03,ENE,68,0.0,0.0,80,0.08,,---,0.10,VWS V13.01,2013-06-11 12:49:00,
2013-06-11 08:50:00,83.3,76.5,30.03,ESE,112,2.9,2.9,80,0.08,,---,0.10,VWS V13.01,2013-06-11 12:50:00,
2013-06-11 08:52:00,83.4,76.2,30.03,NE,45,3.8,3.8,79,0.08,,---,0.10,VWS V13.01,2013-06-11 12:52:00,
2013-06-11 08:54:00,83.4,76.2,30.03,ENE,68,8.9,8.9,79,0.08,,---,0.10,VWS V13.01,2013-06-11 12:54:00,
2013-06-11 08:55:00,83.4,76.2,30.03,ENE,68,6.2,6.2,79,0.08,,---,0.10,VWS V13.01,2013-06-11 12:55:00,
2013-06-11 08:57:00,83.6,76.4,30.03,East,90,13.4,13.4,79,0.08,,---,0.10,VWS V13.01,2013-06-11 12:57:00,
2013-06-11 08:59:00,83.8,76.6,30.03,East,90,3.5,3.5,79,0.08,,---,0.10,VWS V13.01,2013-06-11 12:59:00,
2013-06-11 09:00:00,83.6,76.4,30.03,NE,45,5.3,5.3,79,0.08,,---,0.10,VWS V13.01,2013-06-11 13:00:00,
2013-06-11 09:03:00,84.0,76.4,30.03,SSE,158,2.0,2.0,78,0.04,,---,0.10,VWS V13.01,2013-06-11 13:03:00,
2013-06-11 09:04:00,84.0,76.4,30.03,SE,135,6.7,6.7,78,0.04,,---,0.10,VWS V13.01,2013-06-11 13:04:00,
2013-06-11 09:05:00,84.0,76.4,30.03,East,90,6.7,6.7,78,0.04,,---,0.10,VWS V13.01,2013-06-11 13:05:00,
2013-06-11 09:08:00,84.3,76.7,30.04,ESE,112,14.7,14.7,78,0.00,,---,0.10,VWS V13.01,2013-06-11 13:08:00,
2013-06-11 09:09:00,84.3,76.3,30.04,ENE,68,14.3,14.3,77,0.00,,---,0.10,VWS V13.01,2013-06-11 13:09:00,
2013-06-11 09:10:00,84.5,76.5,30.04,East,90,13.8,13.8,77,0.00,,---,0.10,VWS V13.01,2013-06-11 13:10:00,
2013-06-11 09:13:00,84.7,76.7,30.04,East,90,8.7,8.7,77,0.00,,---,0.10,VWS V13.01,2013-06-11 13:13:00,
2013-06-11 09:14:00,84.7,76.7,30.04,East,90,15.6,15.6,77,0.00,,---,0.10,VWS V13.01,2013-06-11 13:14:00,
2013-06-11 09:15:00,84.7,76.3,30.04,ENE,68,11.8,11.8,76,0.00,,---,0.10,VWS V13.01,2013-06-11 13:15:00,
2013-06-11 09:18:00,84.9,76.5,30.04,SSE,158,3.1,3.1,76,0.00,,---,0.10,VWS V13.01,2013-06-11 13:18:00,
2013-06-11 09:19:00,84.9,76.1,30.03,NE,45,7.6,7.6,75,0.00,,---,0.10,VWS V13.01,2013-06-11 13:19:00,
2013-06-11 09:20:00,84.9,76.1,30.03,SSW,202,5.8,5.8,75,0.00,,---,0.10,VWS V13.01,2013-06-11 13:20:00,
2013-06-11 09:23:00,85.1,76.3,30.04,East,90,10.5,10.5,75,0.00,,---,0.10,VWS V13.01,2013-06-11 13:23:00,
2013-06-11 09:24:00,85.1,76.3,30.04,ENE,68,4.6,4.6,75,0.00,,---,0.10,VWS V13.01,2013-06-11 13:24:00,
2013-06-11 09:25:00,85.2,76.4,30.04,ESE,112,3.1,3.1,75,0.00,,---,0.10,VWS V13.01,2013-06-11 13:25:00,
2013-06-11 09:28:00,85.2,76.4,30.04,East,90,7.6,7.6,75,0.00,,---,0.10,VWS V13.01,2013-06-11 13:28:00,
2013-06-11 09:29:00,85.2,76.4,30.04,NE,45,3.1,3.1,75,0.00,,---,0.10,VWS V13.01,2013-06-11 13:29:00,
2013-06-11 09:30:00,85.6,76.8,30.04,East,90,5.5,5.5,75,0.00,,---,0.10,VWS V13.01,2013-06-11 13:30:00,
2013-06-11 09:33:00,85.6,76.4,30.04,East,90,11.1,11.1,74,0.00,,---,0.10,VWS V13.01,2013-06-11 13:33:00,
2013-06-11 09:34:00,85.6,76.4,30.04,ESE,112,4.0,4.0,74,0.00,,---,0.10,VWS V13.01,2013-06-11 13:34:00,
2013-06-11 09:35:00,85.8,76.6,30.04,ESE,112,7.6,7.6,74,0.00,,---,0.10,VWS V13.01,2013-06-11 13:35:00,
2013-06-11 09:38:00,85.8,76.6,30.04,East,90,9.1,9.1,74,0.00,,---,0.10,VWS V13.01,2013-06-11 13:38:00,
2013-06-11 09:39:00,85.8,76.6,30.04,East,90,11.8,11.8,74,0.00,,---,0.10,VWS V13.01,2013-06-11 13:39:00,
2013-06-11 09:40:00,85.8,76.2,30.04,ENE,68,6.9,6.9,73,0.00,,---,0.10,VWS V13.01,2013-06-11 13:40:00,
2013-06-11 09:43:00,86.0,76.3,30.04,NNE,22,3.8,3.8,73,0.00,,---,0.10,VWS V13.01,2013-06-11 13:43:00,
2013-06-11 09:44:00,85.8,76.2,30.04,ENE,68,8.7,8.7,73,0.00,,---,0.10,VWS V13.01,2013-06-11 13:44:00,
2013-06-11 09:45:00,85.8,76.2,30.04,East,90,4.4,4.4,73,0.00,,---,0.10,VWS V13.01,2013-06-11 13:45:00,
2013-06-11 09:48:00,85.8,76.2,30.04,NE,45,1.5,1.5,73,0.00,,---,0.10,VWS V13.01,2013-06-11 13:48:00,
2013-06-11 09:49:00,86.0,76.3,30.04,NE,45,5.5,5.5,73,0.00,,---,0.10,VWS V13.01,2013-06-11 13:49:00,
2013-06-11 09:50:00,86.1,76.4,30.04,ESE,112,8.9,8.9,73,0.00,,---,0.10,VWS V13.01,2013-06-11 13:50:00,
2013-06-11 09:53:00,86.3,76.2,30.05,East,90,4.0,4.0,72,0.00,,---,0.10,VWS V13.01,2013-06-11 13:53:00,
2013-06-11 09:54:00,86.3,76.2,30.05,East,90,2.9,4.0,72,0.00,,---,0.10,VWS V13.01,2013-06-11 13:54:00,
2013-06-11 09:55:00,86.3,76.2,30.05,East,90,2.9,2.9,72,0.00,,---,0.10,VWS V13.01,2013-06-11 13:55:00,
2013-06-11 09:58:00,86.5,76.4,30.05,SE,135,5.3,5.3,72,0.00,,---,0.10,VWS V13.01,2013-06-11 13:58:00,
2013-06-11 09:59:00,86.5,76.4,30.05,East,90,20.8,20.8,72,0.00,,---,0.10,VWS V13.01,2013-06-11 13:59:00,
2013-06-11 10:00:00,86.5,76.4,30.05,East,90,20.8,20.8,72,0.00,,---,0.10,VWS V13.01,2013-06-11 14:00:00,
2013-06-11 10:03:00,86.5,76.4,30.05,ENE,68,6.7,6.7,72,0.00,,---,0.10,VWS V13.01,2013-06-11 14:03:00,
2013-06-11 10:04:00,86.5,76.4,30.05,North,0,0.0,0.0,72,0.00,,---,0.10,VWS V13.01,2013-06-11 14:04:00,
2013-06-11 10:05:00,86.5,76.4,30.05,North,0,0.0,0.0,72,0.00,,---,0.10,VWS V13.01,2013-06-11 14:05:00,
2013-06-11 10:08:00,86.5,76.4,30.05,SE,135,3.8,3.8,72,0.00,,---,0.10,VWS V13.01,2013-06-11 14:08:00,
2013-06-11 10:09:00,86.7,76.6,30.05,East,90,11.1,11.1,72,0.00,,---,0.10,VWS V13.01,2013-06-11 14:09:00,
2013-06-11 10:10:00,86.7,76.6,30.05,East,90,11.1,11.1,72,0.00,,---,0.10,VWS V13.01,2013-06-11 14:10:00,
2013-06-11 10:13:00,86.7,76.6,30.05,East,90,6.7,6.7,72,0.00,,---,0.10,VWS V13.01,2013-06-11 14:13:00,
2013-06-11 10:14:00,86.7,76.6,30.05,NE,45,11.8,11.8,72,0.00,,---,0.10,VWS V13.01,2013-06-11 14:14:00,
2013-06-11 10:15:00,86.7,76.6,30.05,NE,45,11.8,11.8,72,0.00,,---,0.10,VWS V13.01,2013-06-11 14:15:00,
2013-06-11 10:16:00,86.7,76.6,30.05,SSE,158,3.8,3.8,72,0.00,,---,0.10,VWS V13.01,2013-06-11 14:16:00,
2013-06-11 10:18:00,86.9,76.8,30.05,SSE,158,5.5,5.5,72,0.00,,---,0.10,VWS V13.01,2013-06-11 14:18:00,
2013-06-11 10:19:00,86.9,76.8,30.05,ENE,68,11.6,11.6,72,0.00,,---,0.10,VWS V13.01,2013-06-11 14:19:00,
2013-06-11 10:20:00,86.9,76.8,30.05,ENE,68,11.6,11.6,72,0.00,,---,0.10,VWS V13.01,2013-06-11 14:20:00,
2013-06-11 10:21:00,86.9,76.8,30.05,SE,135,6.0,6.0,72,0.00,,---,0.10,VWS V13.01,2013-06-11 14:21:00,
2013-06-11 10:23:00,87.0,76.9,30.05,ENE,68,12.3,12.3,72,0.00,,---,0.10,VWS V13.01,2013-06-11 14:23:00,
2013-06-11 10:24:00,87.0,76.9,30.05,ENE,68,3.1,3.1,72,0.00,,---,0.10,VWS V13.01,2013-06-11 14:24:00,
2013-06-11 10:25:00,87.0,76.9,30.05,ENE,68,3.1,3.1,72,0.00,,---,0.10,VWS V13.01,2013-06-11 14:25:00,
2013-06-11 10:26:00,87.0,76.9,30.05,ENE,68,2.2,2.2,72,0.00,,---,0.10,VWS V13.01,2013-06-11 14:26:00,
2013-06-11 10:28:00,87.4,77.3,30.05,ESE,112,7.3,7.3,72,0.00,,---,0.10,VWS V13.01,2013-06-11 14:28:00,
2013-06-11 10:29:00,87.4,77.3,30.05,ENE,68,8.0,8.0,72,0.00,,---,0.10,VWS V13.01,2013-06-11 14:29:00,
2013-06-11 10:30:00,87.4,77.3,30.05,ENE,68,8.0,8.0,72,0.00,,---,0.10,VWS V13.01,2013-06-11 14:30:00,
2013-06-11 10:31:00,87.4,76.8,30.05,SSW,202,1.5,1.5,71,0.00,,---,0.10,VWS V13.01,2013-06-11 14:31:00,
2013-06-11 10:34:00,87.4,76.8,30.05,NNW,338,2.2,2.2,71,0.00,,---,0.10,VWS V13.01,2013-06-11 14:34:00,
2013-06-11 10:35:00,87.4,76.8,30.04,ENE,68,7.6,7.6,71,0.00,,---,0.10,VWS V13.01,2013-06-11 14:35:00,
2013-06-11 10:36:00,87.4,76.8,30.05,NNW,338,2.2,2.2,71,0.00,,---,0.10,VWS V13.01,2013-06-11 14:36:00,
2013-06-11 10:37:00,87.4,76.8,30.05,ESE,112,4.0,4.0,71,0.00,,---,0.10,VWS V13.01,2013-06-11 14:37:00,
2013-06-11 10:39:00,87.4,76.8,30.05,NE,45,3.3,3.3,71,0.00,,---,0.10,VWS V13.01,2013-06-11 14:39:00,
2013-06-11 10:40:00,87.6,77.0,30.05,NE,45,5.8,5.8,71,0.00,,---,0.10,VWS V13.01,2013-06-11 14:40:00,
2013-06-11 10:41:00,87.6,77.0,30.05,East,90,2.2,2.2,71,0.00,,---,0.10,VWS V13.01,2013-06-11 14:41:00,
2013-06-11 10:42:00,87.6,77.0,30.05,East,90,2.2,2.2,71,0.00,,---,0.10,VWS V13.01,2013-06-11 14:42:00,
2013-06-11 10:44:00,87.6,77.0,30.05,ENE,68,0.0,0.0,71,0.00,,---,0.10,VWS V13.01,2013-06-11 14:44:00,
2013-06-11 10:45:00,87.6,77.0,30.05,ENE,68,2.2,2.2,71,0.00,,---,0.10,VWS V13.01,2013-06-11 14:45:00,
2013-06-11 10:47:00,87.6,77.0,30.04,ENE,68,12.3,12.3,71,0.00,,---,0.10,VWS V13.01,2013-06-11 14:47:00,
2013-06-11 10:49:00,87.6,77.0,30.04,WSW,248,2.2,2.2,71,0.00,,---,0.10,VWS V13.01,2013-06-11 14:49:00,
2013-06-11 10:50:00,87.6,77.0,30.05,NNE,22,0.8,0.8,71,0.00,,---,0.10,VWS V13.01,2013-06-11 14:50:00,
2013-06-11 10:52:00,87.8,77.2,30.05,North,0,2.9,2.9,71,0.00,,---,0.10,VWS V13.01,2013-06-11 14:52:00,
2013-06-11 10:54:00,87.8,77.2,30.05,ESE,112,12.9,12.9,71,0.00,,---,0.10,VWS V13.01,2013-06-11 14:54:00,
2013-06-11 10:55:00,87.8,77.2,30.05,ENE,68,9.1,9.1,71,0.00,,---,0.10,VWS V13.01,2013-06-11 14:55:00,
2013-06-11 10:57:00,87.9,77.3,30.05,South,180,5.3,5.3,71,0.00,,---,0.10,VWS V13.01,2013-06-11 14:57:00,
2013-06-11 10:59:00,87.9,77.3,30.05,NNE,22,4.6,4.6,71,0.00,,---,0.10,VWS V13.01,2013-06-11 14:59:00,
2013-06-11 11:00:00,87.9,76.9,30.05,ESE,112,2.2,2.2,70,0.00,,---,0.10,VWS V13.01,2013-06-11 15:00:00,
2013-06-11 11:02:00,87.9,76.9,30.04,ESE,112,6.2,6.2,70,0.00,,---,0.10,VWS V13.01,2013-06-11 15:02:00,
2013-06-11 11:03:00,87.9,76.9,30.04,ESE,112,6.2,6.2,70,0.00,,---,0.10,VWS V13.01,2013-06-11 15:03:00,
2013-06-11 11:04:00,87.9,76.9,30.04,ENE,68,6.7,6.7,70,0.00,,---,0.10,VWS V13.01,2013-06-11 15:04:00,
2013-06-11 11:05:00,87.8,76.8,30.05,ESE,112,13.1,13.1,70,0.00,,---,0.10,VWS V13.01,2013-06-11 15:05:00,
2013-06-11 11:07:00,87.8,76.8,30.04,ESE,112,2.2,2.2,70,0.00,,---,0.10,VWS V13.01,2013-06-11 15:07:00,
2013-06-11 11:08:00,87.8,76.8,30.04,ESE,112,2.2,2.2,70,0.00,,---,0.10,VWS V13.01,2013-06-11 15:08:00,
2013-06-11 11:09:00,87.9,76.9,30.05,NE,45,8.0,8.0,70,0.00,,---,0.10,VWS V13.01,2013-06-11 15:09:00,
2013-06-11 11:10:00,87.8,76.8,30.05,ENE,68,8.0,8.0,70,0.00,,---,0.10,VWS V13.01,2013-06-11 15:10:00,
2013-06-11 11:12:00,87.9,76.9,30.04,ENE,68,6.2,6.2,70,0.00,,---,0.10,VWS V13.01,2013-06-11 15:12:00,
2013-06-11 11:13:00,87.9,76.9,30.04,ENE,68,6.2,6.2,70,0.00,,---,0.10,VWS V13.01,2013-06-11 15:13:00,
2013-06-11 11:14:00,87.9,76.9,30.04,ENE,68,5.5,5.5,70,0.00,,---,0.10,VWS V13.01,2013-06-11 15:14:00,
2013-06-11 11:15:00,87.9,76.9,30.05,East,90,2.9,2.9,70,0.00,,---,0.10,VWS V13.01,2013-06-11 15:15:00,
2013-06-11 11:17:00,87.9,76.9,30.05,East,90,16.1,16.1,70,0.00,,---,0.10,VWS V13.01,2013-06-11 15:17:00,
2013-06-11 11:18:00,87.9,76.9,30.05,East,90,16.1,16.1,70,0.00,,---,0.10,VWS V13.01,2013-06-11 15:18:00,
2013-06-11 11:19:00,87.9,76.9,30.04,East,90,8.0,8.0,70,0.00,,---,0.10,VWS V13.01,2013-06-11 15:19:00,
2013-06-11 11:20:00,87.9,76.9,30.04,NE,45,7.1,7.1,70,0.00,,---,0.10,VWS V13.01,2013-06-11 15:20:00,
2013-06-11 11:21:00,87.9,76.9,30.04,NE,45,7.1,7.1,70,0.00,,---,0.10,VWS V13.01,2013-06-11 15:21:00,
2013-06-11 11:23:00,87.9,76.9,30.04,ENE,68,5.3,5.3,70,0.00,,---,0.10,VWS V13.01,2013-06-11 15:23:00,
2013-06-11 11:24:00,87.8,76.8,30.04,ENE,68,11.8,11.8,70,0.00,,---,0.10,VWS V13.01,2013-06-11 15:24:00,
2013-06-11 11:25:00,87.9,76.9,30.04,East,90,8.9,8.9,70,0.00,,---,0.10,VWS V13.01,2013-06-11 15:25:00,
2013-06-11 11:26:00,87.9,76.9,30.04,East,90,8.9,8.9,70,0.00,,---,0.10,VWS V13.01,2013-06-11 15:26:00,
2013-06-11 11:28:00,87.9,76.9,30.04,SE,135,3.8,3.8,70,0.00,,---,0.10,VWS V13.01,2013-06-11 15:28:00,
2013-06-11 11:29:00,87.9,76.9,30.04,North,0,4.6,4.6,70,0.00,,---,0.10,VWS V13.01,2013-06-11 15:29:00,
2013-06-11 11:30:00,87.9,76.9,30.04,ENE,68,4.0,4.0,70,0.00,,---,0.10,VWS V13.01,2013-06-11 15:30:00,
2013-06-11 11:31:00,87.9,76.9,30.04,ENE,68,4.0,4.0,70,0.00,,---,0.10,VWS V13.01,2013-06-11 15:31:00,
2013-06-11 11:33:00,87.6,76.2,30.04,East,90,9.1,9.1,69,0.00,,---,0.10,VWS V13.01,2013-06-11 15:33:00,
2013-06-11 11:34:00,87.8,76.4,30.04,SE,135,6.4,6.4,69,0.00,,---,0.10,VWS V13.01,2013-06-11 15:34:00,
2013-06-11 11:35:00,87.8,76.4,30.04,East,90,6.7,6.7,69,0.00,,---,0.10,VWS V13.01,2013-06-11 15:35:00,
2013-06-11 11:36:00,87.8,76.4,30.04,East,90,6.7,6.7,69,0.00,,---,0.10,VWS V13.01,2013-06-11 15:36:00,
2013-06-11 11:38:00,87.8,76.4,30.04,SE,135,5.1,5.1,69,0.00,,---,0.10,VWS V13.01,2013-06-11 15:38:00,
2013-06-11 11:39:00,87.9,76.5,30.04,ESE,112,7.6,7.6,69,0.00,,---,0.10,VWS V13.01,2013-06-11 15:39:00,
2013-06-11 11:41:00,87.9,76.5,30.04,NE,45,8.7,8.7,69,0.00,,---,0.10,VWS V13.01,2013-06-11 15:41:00,
2013-06-11 11:43:00,87.9,76.5,30.04,ENE,68,10.7,10.7,69,0.00,,---,0.10,VWS V13.01,2013-06-11 15:43:00,
2013-06-11 11:44:00,87.9,76.5,30.04,SSW,202,0.0,0.0,69,0.00,,---,0.10,VWS V13.01,2013-06-11 15:44:00,
2013-06-11 11:46:00,87.9,76.5,30.04,East,90,8.7,8.7,69,0.00,,---,0.10,VWS V13.01,2013-06-11 15:46:00,
2013-06-11 11:48:00,87.9,76.5,30.04,SE,135,13.1,13.1,69,0.00,,---,0.10,VWS V13.01,2013-06-11 15:48:00,
2013-06-11 11:49:00,87.9,76.5,30.04,SE,135,3.8,4.0,69,0.00,,---,0.10,VWS V13.01,2013-06-11 15:49:00,
2013-06-11 11:51:00,87.9,76.0,30.04,NE,45,9.1,9.1,68,0.00,,---,0.10,VWS V13.01,2013-06-11 15:51:00,
2013-06-11 11:52:00,87.9,76.0,30.04,SE,135,6.9,6.9,68,0.00,,---,0.10,VWS V13.01,2013-06-11 15:52:00,
2013-06-11 11:53:00,87.9,76.5,30.04,ENE,68,12.9,12.9,69,0.00,,---,0.10,VWS V13.01,2013-06-11 15:53:00,
2013-06-11 11:54:00,87.9,76.5,30.04,East,90,7.6,7.6,69,0.00,,---,0.10,VWS V13.01,2013-06-11 15:54:00,
2013-06-11 11:56:00,87.9,76.5,30.04,SSE,158,3.5,10.7,69,0.00,,---,0.10,VWS V13.01,2013-06-11 15:56:00,
2013-06-11 11:57:00,87.9,76.5,30.04,SSE,158,3.5,3.5,69,0.00,,---,0.10,VWS V13.01,2013-06-11 15:57:00,
2013-06-11 11:58:00,88.1,76.7,30.04,ENE,68,15.6,15.6,69,0.00,,---,0.10,VWS V13.01,2013-06-11 15:58:00,
2013-06-11 11:59:00,87.9,76.5,30.04,SE,135,4.9,4.9,69,0.00,,---,0.10,VWS V13.01,2013-06-11 15:59:00,
2013-06-11 12:01:00,88.1,76.7,30.04,ENE,68,1.7,1.7,69,0.00,,---,0.10,VWS V13.01,2013-06-11 16:01:00,
2013-06-11 12:02:00,88.1,76.7,30.04,ENE,68,1.7,1.7,69,0.00,,---,0.10,VWS V13.01,2013-06-11 16:02:00,
2013-06-11 12:03:00,88.1,76.7,30.04,NE,45,4.0,4.0,69,0.00,,---,0.10,VWS V13.01,2013-06-11 16:03:00,
2013-06-11 12:04:00,88.3,76.8,30.04,ENE,68,8.9,8.9,69,0.00,,---,0.10,VWS V13.01,2013-06-11 16:04:00,
2013-06-11 12:06:00,88.1,76.7,30.04,ENE,68,8.2,8.2,69,0.00,,---,0.10,VWS V13.01,2013-06-11 16:06:00,
2013-06-11 12:07:00,88.3,76.8,30.04,NE,45,5.8,5.8,69,0.00,,---,0.10,VWS V13.01,2013-06-11 16:07:00,
2013-06-11 12:08:00,88.3,76.8,30.04,NE,45,5.8,5.8,69,0.00,,---,0.10,VWS V13.01,2013-06-11 16:08:00,
2013-06-11 12:09:00,88.3,76.8,30.04,East,90,6.0,6.0,69,0.00,,---,0.10,VWS V13.01,2013-06-11 16:09:00,
2013-06-11 12:12:00,88.5,77.0,30.04,SE,135,3.5,3.5,69,0.00,,---,0.10,VWS V13.01,2013-06-11 16:12:00,
2013-06-11 12:13:00,88.5,77.0,30.04,SE,135,8.9,8.9,69,0.00,,---,0.10,VWS V13.01,2013-06-11 16:13:00,
2013-06-11 12:14:00,88.7,77.2,30.04,East,90,8.2,8.2,69,0.00,,---,0.10,VWS V13.01,2013-06-11 16:14:00,
2013-06-11 12:17:00,88.7,76.8,30.04,East,90,7.6,7.6,68,0.00,,---,0.10,VWS V13.01,2013-06-11 16:17:00,
2013-06-11 12:18:00,88.7,76.8,30.04,East,90,0.0,0.0,68,0.00,,---,0.10,VWS V13.01,2013-06-11 16:18:00,
2013-06-11 12:20:00,88.7,76.8,30.04,ESE,112,8.0,8.0,68,0.00,,---,0.10,VWS V13.01,2013-06-11 16:20:00,
2013-06-11 12:22:00,88.7,76.8,30.04,ENE,68,7.1,7.1,68,0.00,,---,0.10,VWS V13.01,2013-06-11 16:22:00,
2013-06-11 12:23:00,88.7,77.2,30.04,NE,45,2.6,2.6,69,0.00,,---,0.10,VWS V13.01,2013-06-11 16:23:00,
2013-06-11 12:24:00,88.8,77.3,30.04,ENE,68,1.7,1.7,69,0.00,,---,0.10,VWS V13.01,2013-06-11 16:24:00,
2013-06-11 12:25:00,88.7,77.2,30.04,SSE,158,1.3,1.3,69,0.00,,---,0.10,VWS V13.01,2013-06-11 16:25:00,
2013-06-11 12:27:00,88.8,77.3,30.03,ENE,68,0.0,0.0,69,0.00,,---,0.10,VWS V13.01,2013-06-11 16:27:00,
2013-06-11 12:28:00,88.8,76.9,30.03,ESE,112,8.0,8.0,68,0.00,,---,0.10,VWS V13.01,2013-06-11 16:28:00,
2013-06-11 12:29:00,88.8,76.9,30.03,ESE,112,8.0,8.0,68,0.00,,---,0.10,VWS V13.01,2013-06-11 16:29:00,
2013-06-11 12:30:00,88.8,76.9,30.03,NNE,22,5.5,5.5,68,0.00,,---,0.10,VWS V13.01,2013-06-11 16:30:00,
2013-06-11 12:32:00,88.8,76.9,30.03,ENE,68,7.3,7.3,68,0.00,,---,0.10,VWS V13.01,2013-06-11 16:32:00,
2013-06-11 12:33:00,88.8,76.9,30.03,ENE,68,7.3,7.3,68,0.00,,---,0.10,VWS V13.01,2013-06-11 16:33:00,
2013-06-11 12:34:00,89.0,77.1,30.03,ENE,68,11.6,11.6,68,0.00,,---,0.10,VWS V13.01,2013-06-11 16:34:00,
2013-06-11 12:35:00,89.0,77.1,30.03,ENE,68,8.9,8.9,68,0.00,,---,0.10,VWS V13.01,2013-06-11 16:35:00,
2013-06-11 12:37:00,89.2,77.3,30.03,East,90,4.4,4.4,68,0.00,,---,0.10,VWS V13.01,2013-06-11 16:37:00,
2013-06-11 12:38:00,89.2,77.3,30.03,East,90,4.4,4.4,68,0.00,,---,0.10,VWS V13.01,2013-06-11 16:38:00,
2013-06-11 12:39:00,89.2,77.3,30.03,ESE,112,8.2,8.2,68,0.00,,---,0.10,VWS V13.01,2013-06-11 16:39:00,
2013-06-11 12:40:00,89.4,77.4,30.03,ESE,112,5.8,5.8,68,0.00,,---,0.10,VWS V13.01,2013-06-11 16:40:00,
2013-06-11 12:43:00,89.4,77.0,30.03,ENE,68,6.2,6.2,67,0.00,,---,0.10,VWS V13.01,2013-06-11 16:43:00,
2013-06-11 12:44:00,89.4,77.0,30.03,SE,135,4.6,4.6,67,0.00,,---,0.10,VWS V13.01,2013-06-11 16:44:00,
2013-06-11 12:45:00,89.4,77.4,30.03,NE,45,6.4,6.4,68,0.00,,---,0.10,VWS V13.01,2013-06-11 16:45:00,
2013-06-11 12:48:00,89.7,77.7,30.03,North,0,0.0,0.0,68,0.00,,---,0.10,VWS V13.01,2013-06-11 16:48:00,
2013-06-11 12:49:00,89.7,77.3,30.03,SE,135,6.0,6.0,67,0.00,,---,0.10,VWS V13.01,2013-06-11 16:49:00,
2013-06-11 12:50:00,89.7,77.3,30.03,NE,45,12.9,12.9,67,0.00,,---,0.10,VWS V13.01,2013-06-11 16:50:00,
2013-06-11 12:53:00,89.7,77.3,30.02,ENE,68,10.2,10.2,67,0.00,,---,0.10,VWS V13.01,2013-06-11 16:53:00,
2013-06-11 12:54:00,89.7,77.3,30.02,ENE,68,13.1,13.1,67,0.00,,---,0.10,VWS V13.01,2013-06-11 16:54:00,
2013-06-11 12:55:00,89.7,76.8,30.02,ENE,68,15.8,15.8,66,0.00,,---,0.10,VWS V13.01,2013-06-11 16:55:00,
2013-06-11 12:58:00,89.2,76.8,30.02,SE,135,9.1,9.1,67,0.00,,---,0.10,VWS V13.01,2013-06-11 16:58:00,
2013-06-11 12:59:00,89.2,76.8,30.02,ENE,68,4.9,4.9,67,0.00,,---,0.10,VWS V13.01,2013-06-11 16:59:00,
2013-06-11 13:00:00,89.0,76.6,30.02,ENE,68,8.0,8.0,67,0.00,,---,0.10,VWS V13.01,2013-06-11 17:00:00,
2013-06-11 13:03:00,89.0,76.6,30.02,SE,135,5.8,5.8,67,0.00,,---,0.10,VWS V13.01,2013-06-11 17:03:00,
2013-06-11 13:04:00,88.8,76.9,30.02,ENE,68,11.1,11.1,68,0.00,,---,0.10,VWS V13.01,2013-06-11 17:04:00,
2013-06-11 13:05:00,88.8,76.9,30.02,East,90,4.6,4.6,68,0.00,,---,0.10,VWS V13.01,2013-06-11 17:05:00,
2013-06-11 13:08:00,88.8,76.9,30.01,ENE,68,4.4,4.4,68,0.00,,---,0.10,VWS V13.01,2013-06-11 17:08:00,
2013-06-11 13:09:00,88.8,76.9,30.01,NE,45,5.1,5.1,68,0.00,,---,0.10,VWS V13.01,2013-06-11 17:09:00,
2013-06-11 13:11:00,88.8,76.9,30.02,East,90,6.0,6.0,68,0.00,,---,0.10,VWS V13.01,2013-06-11 17:11:00,
2013-06-11 13:13:00,88.7,76.8,30.02,ENE,68,7.6,7.6,68,0.00,,---,0.10,VWS V13.01,2013-06-11 17:13:00,
2013-06-11 13:14:00,88.7,76.8,30.02,ESE,112,9.1,9.1,68,0.00,,---,0.10,VWS V13.01,2013-06-11 17:14:00,
2013-06-11 13:16:00,88.7,76.8,30.02,ENE,68,8.9,8.9,68,0.00,,---,0.10,VWS V13.01,2013-06-11 17:16:00,
2013-06-11 13:18:00,88.7,76.8,30.01,ENE,68,6.9,6.9,68,0.00,,---,0.10,VWS V13.01,2013-06-11 17:18:00,
2013-06-11 13:19:00,88.7,76.8,30.01,East,90,19.2,19.2,68,0.00,,---,0.10,VWS V13.01,2013-06-11 17:19:00,
2013-06-11 13:21:00,88.5,77.0,30.01,ENE,68,18.3,18.3,69,0.00,,---,0.10,VWS V13.01,2013-06-11 17:21:00,
2013-06-11 13:23:00,88.7,77.2,30.01,ESE,112,8.7,8.7,69,0.00,,---,0.10,VWS V13.01,2013-06-11 17:23:00,
2013-06-11 13:24:00,88.7,77.2,30.02,East,90,8.7,8.7,69,0.00,,---,0.10,VWS V13.01,2013-06-11 17:24:00,
2013-06-11 13:27:00,88.5,76.6,30.01,ENE,68,7.8,7.8,68,0.00,,---,0.10,VWS V13.01,2013-06-11 17:27:00,
2013-06-11 13:28:00,88.5,76.6,30.01,ENE,68,8.7,8.7,68,0.00,,---,0.10,VWS V13.01,2013-06-11 17:28:00,
2013-06-11 13:29:00,88.5,76.6,30.01,ENE,68,11.1,11.8,68,0.00,,---,0.10,VWS V13.01,2013-06-11 17:29:00,
2013-06-11 13:32:00,88.7,76.8,30.01,East,90,9.6,9.6,68,0.00,,---,0.10,VWS V13.01,2013-06-11 17:32:00,
2013-06-11 13:33:00,88.5,76.6,30.01,ENE,68,8.9,8.9,68,0.00,,---,0.10,VWS V13.01,2013-06-11 17:33:00,
2013-06-11 13:34:00,88.7,77.2,30.01,East,90,6.0,6.0,69,0.00,,---,0.10,VWS V13.01,2013-06-11 17:34:00,
2013-06-11 13:37:00,88.8,77.3,30.01,East,90,4.6,4.6,69,0.00,,---,0.10,VWS V13.01,2013-06-11 17:37:00,
2013-06-11 13:38:00,89.0,77.1,30.01,East,90,7.6,7.6,68,0.00,,---,0.10,VWS V13.01,2013-06-11 17:38:00,
2013-06-11 13:39:00,89.2,77.3,30.01,SE,135,8.5,8.5,68,0.00,,---,0.10,VWS V13.01,2013-06-11 17:39:00,
2013-06-11 13:42:00,89.4,77.4,30.01,ENE,68,8.0,8.0,68,0.00,,---,0.10,VWS V13.01,2013-06-11 17:42:00,
2013-06-11 13:43:00,89.4,77.4,30.01,ENE,68,5.1,5.1,68,0.00,,---,0.10,VWS V13.01,2013-06-11 17:43:00,
2013-06-11 13:44:00,89.6,77.6,30.01,ENE,68,5.3,5.3,68,0.00,,---,0.10,VWS V13.01,2013-06-11 17:44:00,
2013-06-11 13:47:00,89.7,77.7,30.01,NNE,22,6.2,6.2,68,0.00,,---,0.10,VWS V13.01,2013-06-11 17:47:00,
2013-06-11 13:48:00,89.7,77.7,30.01,NNE,22,6.2,6.2,68,0.00,,---,0.10,VWS V13.01,2013-06-11 17:48:00,
2013-06-11 13:50:00,89.7,77.3,30.01,SE,135,11.8,11.8,67,0.00,,---,0.10,VWS V13.01,2013-06-11 17:50:00,
2013-06-11 13:52:00,89.6,77.2,30.00,East,90,11.1,11.1,67,0.00,,---,0.10,VWS V13.01,2013-06-11 17:52:00,
2013-06-11 13:53:00,89.6,77.2,30.00,East,90,10.5,11.1,67,0.00,,---,0.10,VWS V13.01,2013-06-11 17:53:00,
2013-06-11 13:54:00,89.6,77.2,30.00,East,90,10.5,10.5,67,0.00,,---,0.10,VWS V13.01,2013-06-11 17:54:00,
2013-06-11 13:55:00,89.4,77.4,30.00,ENE,68,9.8,9.8,68,0.00,,---,0.10,VWS V13.01,2013-06-11 17:55:00,
2013-06-11 13:57:00,89.2,77.3,30.00,ESE,112,8.9,8.9,68,0.00,,---,0.10,VWS V13.01,2013-06-11 17:57:00,
2013-06-11 13:58:00,89.2,77.3,30.00,ESE,112,8.0,8.9,68,0.00,,---,0.10,VWS V13.01,2013-06-11 17:58:00,
2013-06-11 13:59:00,89.2,77.3,30.00,ESE,112,8.0,8.0,68,0.00,,---,0.10,VWS V13.01,2013-06-11 17:59:00,
2013-06-11 14:00:00,89.2,77.3,30.00,SW,225,1.3,1.3,68,0.00,,---,0.10,VWS V13.01,2013-06-11 18:00:00,
2013-06-11 14:02:00,89.2,77.3,30.01,East,90,3.8,3.8,68,0.00,,---,0.10,VWS V13.01,2013-06-11 18:02:00,
2013-06-11 14:03:00,89.2,77.3,30.01,NE,45,0.0,0.0,68,0.00,,---,0.10,VWS V13.01,2013-06-11 18:03:00,
2013-06-11 14:04:00,89.2,77.3,30.01,NE,45,0.0,0.0,68,0.00,,---,0.10,VWS V13.01,2013-06-11 18:04:00,
2013-06-11 14:05:00,89.2,77.3,30.01,East,90,4.4,4.4,68,0.00,,---,0.10,VWS V13.01,2013-06-11 18:05:00,
2013-06-11 14:08:00,89.2,77.7,30.01,ESE,112,9.8,9.8,69,0.00,,---,0.10,VWS V13.01,2013-06-11 18:08:00,
2013-06-11 14:09:00,89.2,77.3,30.01,ESE,112,8.5,8.5,68,0.00,,---,0.10,VWS V13.01,2013-06-11 18:09:00,
2013-06-11 14:10:00,88.8,76.9,30.01,SE,135,5.8,5.8,68,0.00,,---,0.10,VWS V13.01,2013-06-11 18:10:00,
2013-06-11 14:13:00,88.7,76.8,30.01,SE,135,8.2,8.2,68,0.00,,---,0.10,VWS V13.01,2013-06-11 18:13:00,
2013-06-11 14:14:00,88.7,76.8,30.01,NE,45,1.3,1.3,68,0.00,,---,0.10,VWS V13.01,2013-06-11 18:14:00,
2013-06-11 14:15:00,88.5,77.0,30.01,East,90,6.4,6.4,69,0.00,,---,0.10,VWS V13.01,2013-06-11 18:15:00,
2013-06-11 14:18:00,88.3,76.8,30.01,ENE,68,6.9,6.9,69,0.00,,---,0.10,VWS V13.01,2013-06-11 18:18:00,
2013-06-11 14:19:00,88.3,76.8,30.01,ENE,68,9.8,9.8,69,0.00,,---,0.10,VWS V13.01,2013-06-11 18:19:00,
2013-06-11 14:20:00,88.1,76.7,30.01,ENE,68,4.6,4.6,69,0.00,,---,0.10,VWS V13.01,2013-06-11 18:20:00,
2013-06-11 14:23:00,87.9,76.9,30.00,ENE,68,4.2,4.2,70,0.00,,---,0.10,VWS V13.01,2013-06-11 18:23:00,
2013-06-11 14:24:00,87.9,76.9,30.00,ESE,112,12.0,12.0,70,0.00,,---,0.10,VWS V13.01,2013-06-11 18:24:00,
2013-06-11 14:25:00,87.9,76.9,30.01,ENE,68,11.1,11.1,70,0.00,,---,0.10,VWS V13.01,2013-06-11 18:25:00,
2013-06-11 14:28:00,87.6,76.6,30.01,ENE,68,7.1,7.1,70,0.00,,---,0.10,VWS V13.01,2013-06-11 18:28:00,
2013-06-11 14:29:00,87.6,76.6,30.01,SE,135,3.8,3.8,70,0.00,,---,0.10,VWS V13.01,2013-06-11 18:29:00,
2013-06-11 14:30:00,87.4,76.4,30.01,SSE,158,6.0,6.0,70,0.00,,---,0.10,VWS V13.01,2013-06-11 18:30:00,
2013-06-11 14:33:00,87.2,76.7,30.01,ENE,68,2.9,2.9,71,0.00,,---,0.10,VWS V13.01,2013-06-11 18:33:00,
2013-06-11 14:34:00,87.0,76.5,30.01,East,90,5.1,5.1,71,0.00,,---,0.10,VWS V13.01,2013-06-11 18:34:00,
2013-06-11 14:35:00,87.0,76.9,30.00,ESE,112,6.0,6.0,72,0.00,,---,0.10,VWS V13.01,2013-06-11 18:35:00,
2013-06-11 14:38:00,86.7,76.2,30.00,East,90,0.8,0.8,71,0.00,,---,0.10,VWS V13.01,2013-06-11 18:38:00,
2013-06-11 14:39:00,86.7,76.2,30.00,East,90,0.8,0.8,71,0.00,,---,0.10,VWS V13.01,2013-06-11 18:39:00,
2013-06-11 14:40:00,86.5,76.0,30.01,NE,45,8.0,8.0,71,0.00,,---,0.10,VWS V13.01,2013-06-11 18:40:00,
2013-06-11 14:41:00,86.5,76.0,30.01,NE,45,8.0,8.0,71,0.00,,---,0.10,VWS V13.01,2013-06-11 18:41:00,
2013-06-11 14:43:00,86.3,75.8,30.01,ENE,68,3.8,3.8,71,0.00,,---,0.10,VWS V13.01,2013-06-11 18:43:00,
2013-06-11 14:44:00,86.3,75.8,30.01,ENE,68,3.8,3.8,71,0.00,,---,0.10,VWS V13.01,2013-06-11 18:44:00,
2013-06-11 14:45:00,86.3,75.8,30.01,East,90,3.3,3.3,71,0.00,,---,0.10,VWS V13.01,2013-06-11 18:45:00,
2013-06-11 14:46:00,86.3,75.8,30.01,East,90,3.3,3.3,71,0.00,,---,0.10,VWS V13.01,2013-06-11 18:46:00,
2013-06-11 14:48:00,86.3,75.8,30.01,ESE,112,0.0,0.0,71,0.00,,---,0.10,VWS V13.01,2013-06-11 18:48:00,
2013-06-11 14:49:00,86.3,75.8,30.01,ESE,112,0.0,0.0,71,0.00,,---,0.10,VWS V13.01,2013-06-11 18:49:00,
2013-06-11 14:50:00,86.3,75.8,30.01,ENE,68,0.0,6.7,71,0.00,,---,0.10,VWS V13.01,2013-06-11 18:50:00,
2013-06-11 14:51:00,86.3,75.8,30.01,ENE,68,0.0,0.0,71,0.00,,---,0.10,VWS V13.01,2013-06-11 18:51:00,
2013-06-11 14:53:00,86.3,76.2,30.00,SE,135,4.2,4.2,72,0.00,,---,0.10,VWS V13.01,2013-06-11 18:53:00,
2013-06-11 14:54:00,86.3,76.2,30.00,SE,135,4.2,4.2,72,0.00,,---,0.10,VWS V13.01,2013-06-11 18:54:00,
2013-06-11 14:55:00,86.3,76.2,30.01,ENE,68,9.3,9.3,72,0.00,,---,0.10,VWS V13.01,2013-06-11 18:55:00,
2013-06-11 14:56:00,86.3,76.2,30.01,ENE,68,9.3,9.3,72,0.00,,---,0.10,VWS V13.01,2013-06-11 18:56:00,
2013-06-11 14:58:00,86.3,76.2,30.01,East,90,0.0,0.0,72,0.00,,---,0.10,VWS V13.01,2013-06-11 18:58:00,
2013-06-11 14:59:00,86.3,76.2,30.01,ESE,112,2.0,2.0,72,0.00,,---,0.10,VWS V13.01,2013-06-11 18:59:00,
2013-06-11 15:00:00,86.3,76.2,30.01,ESE,112,2.0,2.0,72,0.00,,---,0.10,VWS V13.01,2013-06-11 19:00:00,
2013-06-11 15:01:00,86.3,76.2,30.01,ENE,68,2.0,3.5,72,0.00,,---,0.10,VWS V13.01,2013-06-11 19:01:00,
2013-06-11 15:03:00,86.1,76.0,30.00,ESE,112,2.4,2.4,72,0.00,,---,0.10,VWS V13.01,2013-06-11 19:03:00,
2013-06-11 15:04:00,86.3,76.2,30.01,East,90,2.4,2.4,72,0.00,,---,0.10,VWS V13.01,2013-06-11 19:04:00,
2013-06-11 15:05:00,86.3,76.2,30.01,East,90,2.4,2.4,72,0.00,,---,0.10,VWS V13.01,2013-06-11 19:05:00,
2013-06-11 15:06:00,86.1,76.4,30.01,South,180,2.2,2.2,73,0.00,,---,0.10,VWS V13.01,2013-06-11 19:06:00,
2013-06-11 15:09:00,86.1,76.4,30.00,East,90,0.0,0.0,73,0.00,,---,0.10,VWS V13.01,2013-06-11 19:09:00,
2013-06-11 15:10:00,86.1,76.4,30.00,NE,45,1.5,1.5,73,0.00,,---,0.10,VWS V13.01,2013-06-11 19:10:00,
2013-06-11 15:11:00,86.1,76.4,30.01,ENE,68,6.7,6.7,73,0.00,,---,0.10,VWS V13.01,2013-06-11 19:11:00,
2013-06-11 15:14:00,86.1,76.4,30.01,East,90,3.5,3.5,73,0.00,,---,0.10,VWS V13.01,2013-06-11 19:14:00,
2013-06-11 15:15:00,86.1,76.4,30.01,ENE,68,3.5,3.5,73,0.00,,---,0.10,VWS V13.01,2013-06-11 19:15:00,
2013-06-11 15:17:00,86.1,76.4,30.01,SE,135,4.4,4.4,73,0.00,,---,0.10,VWS V13.01,2013-06-11 19:17:00,
2013-06-11 15:19:00,86.1,76.4,30.01,South,180,7.6,7.6,73,0.00,,---,0.10,VWS V13.01,2013-06-11 19:19:00,
2013-06-11 15:20:00,86.0,76.3,30.01,SE,135,5.8,5.8,73,0.00,,---,0.10,VWS V13.01,2013-06-11 19:20:00,
2013-06-11 15:21:00,85.8,75.7,30.01,SE,135,7.1,7.1,72,0.00,,---,0.10,VWS V13.01,2013-06-11 19:21:00,
2013-06-11 15:22:00,85.8,75.3,30.01,SE,135,12.3,12.3,71,0.00,,---,0.10,VWS V13.01,2013-06-11 19:22:00,
2013-06-11 15:24:00,85.4,74.5,30.01,SE,135,9.1,9.1,70,0.00,,---,0.10,VWS V13.01,2013-06-11 19:24:00,
2013-06-11 15:25:00,85.2,74.3,30.01,SE,135,8.0,8.0,70,0.00,,---,0.10,VWS V13.01,2013-06-11 19:25:00,
2013-06-11 15:26:00,85.1,74.6,30.01,South,180,10.9,10.9,71,0.00,,---,0.10,VWS V13.01,2013-06-11 19:26:00,
2013-06-11 15:27:00,84.9,74.4,30.01,SE,135,4.6,4.6,71,0.00,,---,0.10,VWS V13.01,2013-06-11 19:27:00,
2013-06-11 15:29:00,84.5,74.5,30.01,SSE,158,10.5,10.5,72,0.02,,---,0.12,VWS V13.01,2013-06-11 19:29:00,
2013-06-11 15:30:00,84.2,74.2,30.01,SSE,158,4.6,4.6,72,0.04,,---,0.14,VWS V13.01,2013-06-11 19:30:00,
2013-06-11 15:31:00,83.8,74.2,30.01,South,180,1.1,1.1,73,0.12,,---,0.22,VWS V13.01,2013-06-11 19:31:00,
2013-06-11 15:32:00,83.8,74.2,30.01,South,180,1.1,1.1,73,0.12,,---,0.22,VWS V13.01,2013-06-11 19:32:00,
2013-06-11 15:34:00,83.1,74.0,30.01,East,90,0.0,0.0,74,0.12,,---,0.22,VWS V13.01,2013-06-11 19:34:00,
2013-06-11 15:35:00,82.9,74.2,30.01,ESE,112,2.2,2.2,75,0.12,,---,0.22,VWS V13.01,2013-06-11 19:35:00,
2013-06-11 15:36:00,82.7,74.0,30.01,SSE,158,1.5,1.5,75,0.14,,---,0.24,VWS V13.01,2013-06-11 19:36:00,
2013-06-11 15:37:00,82.7,74.0,30.01,SSE,158,1.5,1.5,75,0.14,,---,0.24,VWS V13.01,2013-06-11 19:37:00,
2013-06-11 15:39:00,82.5,74.2,30.01,SSE,158,4.9,4.9,76,0.16,,---,0.26,VWS V13.01,2013-06-11 19:39:00,
2013-06-11 15:40:00,82.5,74.6,30.01,SSE,158,4.4,4.4,77,0.16,,---,0.26,VWS V13.01,2013-06-11 19:40:00,
2013-06-11 15:41:00,82.5,74.9,30.01,ESE,112,0.0,0.0,78,0.16,,---,0.26,VWS V13.01,2013-06-11 19:41:00,
2013-06-11 15:42:00,82.5,74.9,30.01,ESE,112,0.0,0.0,78,0.16,,---,0.26,VWS V13.01,2013-06-11 19:42:00,
2013-06-11 15:44:00,82.7,75.2,30.01,ESE,112,0.0,0.0,78,0.16,,---,0.26,VWS V13.01,2013-06-11 19:44:00,
2013-06-11 15:45:00,82.7,75.2,30.01,ESE,112,1.7,1.7,78,0.16,,---,0.26,VWS V13.01,2013-06-11 19:45:00,
2013-06-11 15:47:00,82.9,75.7,30.01,SE,135,2.4,2.4,79,0.16,,---,0.26,VWS V13.01,2013-06-11 19:47:00,
2013-06-11 15:49:00,83.1,75.9,30.01,ENE,68,1.1,1.1,79,0.18,,---,0.28,VWS V13.01,2013-06-11 19:49:00,
2013-06-11 15:50:00,83.1,75.9,30.01,SE,135,4.4,4.4,79,0.18,,---,0.28,VWS V13.01,2013-06-11 19:50:00,
2013-06-11 15:52:00,83.1,76.3,30.01,South,180,3.1,3.1,80,0.20,,---,0.30,VWS V13.01,2013-06-11 19:52:00,
2013-06-11 15:54:00,82.9,76.1,30.01,SE,135,3.3,3.3,80,0.22,,---,0.32,VWS V13.01,2013-06-11 19:54:00,
2013-06-11 15:55:00,82.9,76.5,30.01,SE,135,5.1,5.1,81,0.22,,---,0.32,VWS V13.01,2013-06-11 19:55:00,
2013-06-11 15:57:00,82.7,76.3,30.01,ENE,68,0.0,0.0,81,0.24,,---,0.35,VWS V13.01,2013-06-11 19:57:00,
2013-06-11 15:58:00,82.7,76.3,30.01,SE,135,3.8,3.8,81,0.24,,---,0.35,VWS V13.01,2013-06-11 19:58:00,
2013-06-11 15:59:00,82.7,76.7,30.01,SE,135,1.3,1.5,82,0.24,,---,0.35,VWS V13.01,2013-06-11 19:59:00,
2013-06-11 16:00:00,82.7,76.7,30.00,ESE,112,0.0,0.0,82,0.24,,---,0.35,VWS V13.01,2013-06-11 20:00:00,
2013-06-11 16:03:00,82.7,76.7,30.01,NNE,22,0.0,0.0,82,0.28,,---,0.39,VWS V13.01,2013-06-11 20:03:00,
2013-06-11 16:05:00,82.9,76.8,30.00,ENE,68,1.3,1.3,82,0.30,,---,0.41,VWS V13.01,2013-06-11 20:05:00,
2013-06-11 16:08:00,82.9,76.8,30.00,ENE,68,12.3,12.3,82,0.32,,---,0.43,VWS V13.01,2013-06-11 20:08:00,
2013-06-11 16:10:00,83.1,77.0,29.99,East,90,0.0,0.0,82,0.32,,---,0.43,VWS V13.01,2013-06-11 20:10:00,
2013-06-11 16:11:00,83.1,77.0,29.99,ENE,68,2.9,2.9,82,0.32,,---,0.43,VWS V13.01,2013-06-11 20:11:00,
2013-06-11 16:13:00,83.3,77.2,30.00,NNE,22,1.1,1.1,82,0.32,,---,0.43,VWS V13.01,2013-06-11 20:13:00,
2013-06-11 16:15:00,83.4,77.3,30.00,ESE,112,4.0,4.0,82,0.32,,---,0.43,VWS V13.01,2013-06-11 20:15:00,
2013-06-11 16:16:00,83.6,77.5,29.99,NE,45,0.0,0.0,82,0.32,,---,0.43,VWS V13.01,2013-06-11 20:16:00,
2013-06-11 16:18:00,83.8,77.7,29.99,ENE,68,5.3,5.3,82,0.32,,---,0.43,VWS V13.01,2013-06-11 20:18:00,
2013-06-11 16:20:00,84.0,77.9,30.00,SSE,158,0.0,0.0,82,0.32,,---,0.43,VWS V13.01,2013-06-11 20:20:00,
2013-06-11 16:21:00,84.0,77.5,30.00,ENE,68,1.1,1.1,81,0.32,,---,0.43,VWS V13.01,2013-06-11 20:21:00,
2013-06-11 16:23:00,84.0,77.5,30.00,East,90,8.2,8.2,81,0.32,,---,0.43,VWS V13.01,2013-06-11 20:23:00,
2013-06-11 16:25:00,84.2,77.4,29.99,East,90,7.6,7.6,80,0.32,,---,0.43,VWS V13.01,2013-06-11 20:25:00,
2013-06-11 16:26:00,84.2,77.4,29.99,ENE,68,7.1,7.1,80,0.32,,---,0.43,VWS V13.01,2013-06-11 20:26:00,
2013-06-11 16:28:00,84.3,77.5,29.99,ENE,68,2.9,2.9,80,0.24,,---,0.43,VWS V13.01,2013-06-11 20:28:00,
2013-06-11 16:30:00,84.3,77.5,30.00,East,90,0.0,0.0,80,0.24,,---,0.43,VWS V13.01,2013-06-11 20:30:00,
2013-06-11 16:31:00,84.3,77.5,30.00,ENE,68,10.2,10.2,80,0.20,,---,0.43,VWS V13.01,2013-06-11 20:31:00,
2013-06-11 16:33:00,84.3,77.5,30.00,East,90,7.3,7.3,80,0.20,,---,0.43,VWS V13.01,2013-06-11 20:33:00,
2013-06-11 16:35:00,84.3,77.5,29.99,ENE,68,4.9,4.9,80,0.16,,---,0.43,VWS V13.01,2013-06-11 20:35:00,
2013-06-11 16:36:00,84.3,77.1,29.99,South,180,3.5,3.5,79,0.16,,---,0.43,VWS V13.01,2013-06-11 20:36:00,
2013-06-11 16:38:00,84.3,77.1,29.99,East,90,3.8,3.8,79,0.16,,---,0.43,VWS V13.01,2013-06-11 20:38:00,
2013-06-11 16:40:00,84.2,77.0,30.00,NE,45,5.8,5.8,79,0.16,,---,0.43,VWS V13.01,2013-06-11 20:40:00,
2013-06-11 16:41:00,84.2,77.0,30.00,East,90,5.1,5.1,79,0.16,,---,0.43,VWS V13.01,2013-06-11 20:41:00,
2013-06-11 16:43:00,84.0,76.8,29.99,NE,45,5.1,5.1,79,0.16,,---,0.43,VWS V13.01,2013-06-11 20:43:00,
2013-06-11 16:45:00,84.0,76.8,30.00,SE,135,2.2,2.2,79,0.16,,---,0.43,VWS V13.01,2013-06-11 20:45:00,
2013-06-11 16:46:00,84.0,76.8,30.00,East,90,0.0,0.0,79,0.16,,---,0.43,VWS V13.01,2013-06-11 20:46:00,
2013-06-11 16:48:00,84.0,76.8,30.00,East,90,6.0,6.0,79,0.12,,---,0.43,VWS V13.01,2013-06-11 20:48:00,
2013-06-11 16:50:00,84.0,76.8,29.99,East,90,5.1,5.1,79,0.12,,---,0.43,VWS V13.01,2013-06-11 20:50:00,
2013-06-11 16:51:00,84.0,76.8,29.99,East,90,1.3,1.3,79,0.10,,---,0.43,VWS V13.01,2013-06-11 20:51:00,
2013-06-11 16:53:00,84.0,76.8,29.99,NE,45,0.0,0.0,79,0.10,,---,0.43,VWS V13.01,2013-06-11 20:53:00,
2013-06-11 16:55:00,84.0,76.8,30.00,ESE,112,6.7,6.7,79,0.08,,---,0.43,VWS V13.01,2013-06-11 20:55:00,
2013-06-11 16:56:00,84.2,77.0,30.00,SSE,158,9.3,9.3,79,0.08,,---,0.43,VWS V13.01,2013-06-11 20:56:00,
2013-06-11 16:57:00,84.2,77.0,30.00,SSE,158,9.3,9.3,79,0.08,,---,0.43,VWS V13.01,2013-06-11 20:57:00,
2013-06-11 16:58:00,84.2,77.0,30.00,ENE,68,3.8,3.8,79,0.06,,---,0.43,VWS V13.01,2013-06-11 20:58:00,
2013-06-11 17:00:00,84.2,77.0,30.00,ESE,112,5.1,5.1,79,0.06,,---,0.43,VWS V13.01,2013-06-11 21:00:00,
2013-06-11 17:01:00,84.3,77.1,30.00,East,90,4.4,4.4,79,0.06,,---,0.43,VWS V13.01,2013-06-11 21:01:00,
2013-06-11 17:02:00,84.3,77.1,30.00,East,90,4.4,4.4,79,0.06,,---,0.43,VWS V13.01,2013-06-11 21:02:00,
2013-06-11 17:03:00,84.3,76.7,30.00,SE,135,0.0,0.0,78,0.00,,---,0.43,VWS V13.01,2013-06-11 21:03:00,
2013-06-11 17:04:00,84.3,76.7,30.00,SE,135,0.0,0.0,78,0.00,,---,0.43,VWS V13.01,2013-06-11 21:04:00,
2013-06-11 17:05:00,84.5,76.9,30.00,ENE,68,13.6,13.6,78,0.00,,---,0.43,VWS V13.01,2013-06-11 21:05:00,
2013-06-11 17:07:00,84.3,76.7,30.00,East,90,2.2,2.2,78,0.00,,---,0.43,VWS V13.01,2013-06-11 21:07:00,
2013-06-11 17:08:00,84.5,76.9,29.99,South,180,0.0,0.0,78,0.00,,---,0.43,VWS V13.01,2013-06-11 21:08:00,
2013-06-11 17:09:00,84.5,76.9,29.99,South,180,0.0,0.0,78,0.00,,---,0.43,VWS V13.01,2013-06-11 21:09:00,
2013-06-11 17:10:00,84.5,76.9,29.99,SE,135,3.5,3.5,78,0.00,,---,0.43,VWS V13.01,2013-06-11 21:10:00,
2013-06-11 17:12:00,84.5,76.9,29.99,ESE,112,2.4,2.4,78,0.00,,---,0.43,VWS V13.01,2013-06-11 21:12:00,
2013-06-11 17:13:00,84.5,76.9,29.99,South,180,0.0,0.0,78,0.00,,---,0.43,VWS V13.01,2013-06-11 21:13:00,
2013-06-11 17:14:00,84.5,76.9,29.99,South,180,0.0,0.0,78,0.00,,---,0.43,VWS V13.01,2013-06-11 21:14:00,
2013-06-11 17:15:00,84.5,76.9,29.99,ESE,112,1.1,1.1,78,0.00,,---,0.43,VWS V13.01,2013-06-11 21:15:00,
2013-06-11 17:17:00,84.5,76.9,29.99,SE,135,0.0,0.0,78,0.00,,---,0.43,VWS V13.01,2013-06-11 21:17:00,
2013-06-11 17:18:00,84.5,76.9,29.99,ENE,68,6.0,6.0,78,0.00,,---,0.43,VWS V13.01,2013-06-11 21:18:00,
2013-06-11 17:19:00,84.5,76.9,29.99,ENE,68,6.0,6.0,78,0.00,,---,0.43,VWS V13.01,2013-06-11 21:19:00,
2013-06-11 17:20:00,84.5,76.9,30.00,ESE,112,3.5,3.5,78,0.00,,---,0.43,VWS V13.01,2013-06-11 21:20:00,
2013-06-11 17:22:00,84.3,76.7,29.99,ENE,68,5.5,5.5,78,0.00,,---,0.43,VWS V13.01,2013-06-11 21:22:00,
2013-06-11 17:24:00,84.3,76.7,29.99,SE,135,4.9,4.9,78,0.00,,---,0.43,VWS V13.01,2013-06-11 21:24:00,
2013-06-11 17:25:00,84.5,76.9,30.00,ESE,112,2.4,2.4,78,0.00,,---,0.43,VWS V13.01,2013-06-11 21:25:00,
2013-06-11 17:27:00,84.3,76.7,29.99,SSE,158,8.7,8.7,78,0.00,,---,0.43,VWS V13.01,2013-06-11 21:27:00,
2013-06-11 17:29:00,84.3,76.3,29.99,East,90,8.0,8.0,77,0.00,,---,0.43,VWS V13.01,2013-06-11 21:29:00,
2013-06-11 17:30:00,84.3,76.3,30.00,East,90,6.0,6.0,77,0.00,,---,0.43,VWS V13.01,2013-06-11 21:30:00,
2013-06-11 17:32:00,84.3,76.3,29.99,ESE,112,5.1,5.1,77,0.00,,---,0.43,VWS V13.01,2013-06-11 21:32:00,
2013-06-11 17:34:00,84.3,76.3,29.99,NE,45,3.1,3.1,77,0.00,,---,0.43,VWS V13.01,2013-06-11 21:34:00,
2013-06-11 17:35:00,84.3,76.3,29.99,East,90,5.1,5.1,77,0.00,,---,0.43,VWS V13.01,2013-06-11 21:35:00,
2013-06-11 17:37:00,84.3,76.3,30.00,ENE,68,4.9,4.9,77,0.00,,---,0.43,VWS V13.01,2013-06-11 21:37:00,
2013-06-11 17:39:00,84.5,76.5,29.99,ESE,112,7.3,7.3,77,0.00,,---,0.43,VWS V13.01,2013-06-11 21:39:00,
2013-06-11 17:40:00,84.3,76.3,29.99,East,90,1.5,1.5,77,0.00,,---,0.43,VWS V13.01,2013-06-11 21:40:00,
2013-06-11 17:42:00,84.5,76.5,29.99,East,90,3.5,3.5,77,0.00,,---,0.43,VWS V13.01,2013-06-11 21:42:00,
2013-06-11 17:44:00,84.7,76.7,29.99,ESE,112,5.3,5.3,77,0.00,,---,0.43,VWS V13.01,2013-06-11 21:44:00,
2013-06-11 17:45:00,84.5,76.1,29.99,East,90,7.1,7.1,76,0.00,,---,0.43,VWS V13.01,2013-06-11 21:45:00,
2013-06-11 17:47:00,84.7,76.3,29.99,East,90,2.2,2.2,76,0.00,,---,0.43,VWS V13.01,2013-06-11 21:47:00,
2013-06-11 17:48:00,84.7,76.3,29.99,East,90,2.2,2.2,76,0.00,,---,0.43,VWS V13.01,2013-06-11 21:48:00,
2013-06-11 17:49:00,84.7,76.3,29.99,East,90,2.6,2.6,76,0.00,,---,0.43,VWS V13.01,2013-06-11 21:49:00,
2013-06-11 17:50:00,84.7,76.3,30.00,ESE,112,8.5,8.5,76,0.00,,---,0.43,VWS V13.01,2013-06-11 21:50:00,
2013-06-11 17:52:00,84.5,76.1,29.99,South,180,2.0,2.0,76,0.00,,---,0.43,VWS V13.01,2013-06-11 21:52:00,
2013-06-11 17:53:00,84.5,76.1,29.99,ESE,112,4.6,4.6,76,0.00,,---,0.43,VWS V13.01,2013-06-11 21:53:00,
2013-06-11 17:54:00,84.7,76.3,29.99,ENE,68,3.8,3.8,76,0.00,,---,0.43,VWS V13.01,2013-06-11 21:54:00,
2013-06-11 17:55:00,84.7,76.3,29.99,NE,45,0.0,0.0,76,0.00,,---,0.43,VWS V13.01,2013-06-11 21:55:00,
2013-06-11 17:57:00,84.7,76.3,29.99,ENE,68,8.9,8.9,76,0.00,,---,0.43,VWS V13.01,2013-06-11 21:57:00,
2013-06-11 17:58:00,84.7,76.3,29.99,ENE,68,8.9,8.9,76,0.00,,---,0.43,VWS V13.01,2013-06-11 21:58:00,
2013-06-11 17:59:00,84.7,76.3,29.99,ESE,112,3.8,3.8,76,0.00,,---,0.43,VWS V13.01,2013-06-11 21:59:00,
2013-06-11 18:01:00,84.7,76.3,29.99,ENE,68,4.0,4.0,76,0.00,,---,0.43,VWS V13.01,2013-06-11 22:01:00,
2013-06-11 18:02:00,84.7,76.3,29.99,East,90,3.1,3.1,76,0.00,,---,0.43,VWS V13.01,2013-06-11 22:02:00,
2013-06-11 18:03:00,84.7,76.3,29.99,East,90,3.1,3.1,76,0.00,,---,0.43,VWS V13.01,2013-06-11 22:03:00,
2013-06-11 18:04:00,84.5,76.1,29.99,ESE,112,6.9,6.9,76,0.00,,---,0.43,VWS V13.01,2013-06-11 22:04:00,
2013-06-11 18:05:00,84.5,76.1,29.99,SE,135,4.0,4.0,76,0.00,,---,0.43,VWS V13.01,2013-06-11 22:05:00,
2013-06-11 18:06:00,84.7,76.3,29.99,NE,45,1.1,1.1,76,0.00,,---,0.43,VWS V13.01,2013-06-11 22:06:00,
2013-06-11 18:07:00,84.5,76.1,29.99,NE,45,3.8,3.8,76,0.00,,---,0.43,VWS V13.01,2013-06-11 22:07:00,
2013-06-11 18:08:00,84.5,76.1,29.99,NE,45,3.8,3.8,76,0.00,,---,0.43,VWS V13.01,2013-06-11 22:08:00,
2013-06-11 18:09:00,84.3,75.9,29.99,SE,135,4.6,4.6,76,0.00,,---,0.43,VWS V13.01,2013-06-11 22:09:00,
2013-06-11 18:10:00,84.3,75.9,29.99,East,90,9.8,9.8,76,0.00,,---,0.43,VWS V13.01,2013-06-11 22:10:00,
2013-06-11 18:11:00,84.3,75.9,29.99,ENE,68,8.5,8.5,76,0.00,,---,0.43,VWS V13.01,2013-06-11 22:11:00,
2013-06-11 18:12:00,84.2,75.8,29.99,ENE,68,4.4,4.4,76,0.00,,---,0.43,VWS V13.01,2013-06-11 22:12:00,
2013-06-11 18:13:00,84.2,75.8,29.99,ENE,68,4.6,4.6,76,0.00,,---,0.43,VWS V13.01,2013-06-11 22:13:00,
2013-06-11 18:14:00,84.0,75.6,29.99,ENE,68,3.8,3.8,76,0.00,,---,0.43,VWS V13.01,2013-06-11 22:14:00,
2013-06-11 18:15:00,84.0,75.6,29.99,ENE,68,3.8,3.8,76,0.00,,---,0.43,VWS V13.01,2013-06-11 22:15:00,
2013-06-11 18:16:00,84.0,75.6,29.99,East,90,5.3,5.3,76,0.00,,---,0.43,VWS V13.01,2013-06-11 22:16:00,
2013-06-11 18:17:00,84.0,75.6,29.99,ENE,68,8.5,8.5,76,0.00,,---,0.43,VWS V13.01,2013-06-11 22:17:00,
2013-06-11 18:18:00,84.0,76.0,29.99,East,90,6.7,6.7,77,0.00,,---,0.43,VWS V13.01,2013-06-11 22:18:00,
2013-06-11 18:19:00,84.0,76.0,29.99,ENE,68,6.0,6.0,77,0.00,,---,0.43,VWS V13.01,2013-06-11 22:19:00,
2013-06-11 18:20:00,84.0,76.0,29.99,ENE,68,6.0,6.0,77,0.00,,---,0.43,VWS V13.01,2013-06-11 22:20:00,
2013-06-11 18:22:00,83.8,75.8,29.99,NE,45,1.5,1.5,77,0.00,,---,0.43,VWS V13.01,2013-06-11 22:22:00,
2013-06-11 18:23:00,83.8,75.8,29.99,East,90,5.1,5.1,77,0.00,,---,0.43,VWS V13.01,2013-06-11 22:23:00,
2013-06-11 18:24:00,83.8,75.8,29.99,NE,45,3.5,3.5,77,0.00,,---,0.43,VWS V13.01,2013-06-11 22:24:00,
2013-06-11 18:25:00,83.8,75.8,29.99,NE,45,3.5,3.5,77,0.00,,---,0.43,VWS V13.01,2013-06-11 22:25:00,
2013-06-11 18:27:00,83.6,75.6,29.99,East,90,7.3,7.3,77,0.00,,---,0.43,VWS V13.01,2013-06-11 22:27:00,
2013-06-11 18:28:00,83.6,75.6,29.99,East,90,7.1,7.1,77,0.00,,---,0.43,VWS V13.01,2013-06-11 22:28:00,
2013-06-11 18:29:00,83.4,75.8,29.99,ESE,112,0.8,0.8,78,0.00,,---,0.43,VWS V13.01,2013-06-11 22:29:00,
2013-06-11 18:30:00,83.4,75.8,29.99,ESE,112,0.8,0.8,78,0.00,,---,0.43,VWS V13.01,2013-06-11 22:30:00,
2013-06-11 18:32:00,83.4,75.8,29.99,ESE,112,1.5,1.5,78,0.00,,---,0.43,VWS V13.01,2013-06-11 22:32:00,
2013-06-11 18:33:00,83.4,75.8,29.99,NNW,338,2.2,2.2,78,0.00,,---,0.43,VWS V13.01,2013-06-11 22:33:00,
2013-06-11 18:34:00,83.4,75.8,29.99,ESE,112,7.8,7.8,78,0.00,,---,0.43,VWS V13.01,2013-06-11 22:34:00,
2013-06-11 18:35:00,83.3,75.7,29.99,ESE,112,6.2,7.8,78,0.00,,---,0.43,VWS V13.01,2013-06-11 22:35:00,
2013-06-11 18:37:00,83.3,75.7,30.00,NNE,22,4.2,4.2,78,0.00,,---,0.43,VWS V13.01,2013-06-11 22:37:00,
2013-06-11 18:38:00,83.3,75.7,30.00,East,90,2.4,2.4,78,0.00,,---,0.43,VWS V13.01,2013-06-11 22:38:00,
2013-06-11 18:39:00,83.3,75.7,29.99,ESE,112,2.6,2.6,78,0.00,,---,0.43,VWS V13.01,2013-06-11 22:39:00,
2013-06-11 18:40:00,83.3,75.7,29.99,ESE,112,8.5,8.5,78,0.00,,---,0.43,VWS V13.01,2013-06-11 22:40:00,
2013-06-11 18:42:00,83.1,75.5,29.99,ENE,68,4.6,4.6,78,0.00,,---,0.43,VWS V13.01,2013-06-11 22:42:00,
2013-06-11 18:43:00,83.1,75.5,29.99,East,90,2.4,2.4,78,0.00,,---,0.43,VWS V13.01,2013-06-11 22:43:00,
2013-06-11 18:44:00,83.1,75.9,29.99,East,90,1.7,1.7,79,0.00,,---,0.43,VWS V13.01,2013-06-11 22:44:00,
2013-06-11 18:45:00,83.1,75.9,30.00,East,90,6.9,6.9,79,0.00,,---,0.43,VWS V13.01,2013-06-11 22:45:00,
2013-06-11 18:47:00,83.1,75.9,29.99,ENE,68,4.4,4.4,79,0.00,,---,0.43,VWS V13.01,2013-06-11 22:47:00,
2013-06-11 18:48:00,83.1,75.9,29.99,ENE,68,2.4,2.4,79,0.00,,---,0.43,VWS V13.01,2013-06-11 22:48:00,
2013-06-11 18:49:00,83.1,75.9,29.98,East,90,8.7,8.7,79,0.00,,---,0.43,VWS V13.01,2013-06-11 22:49:00,
2013-06-11 18:50:00,83.1,75.9,29.99,NE,45,9.1,9.1,79,0.00,,---,0.43,VWS V13.01,2013-06-11 22:50:00,
2013-06-11 18:52:00,82.9,75.7,29.99,East,90,3.1,3.1,79,0.00,,---,0.43,VWS V13.01,2013-06-11 22:52:00,
2013-06-11 18:53:00,82.9,76.1,29.99,ENE,68,4.2,4.2,80,0.00,,---,0.43,VWS V13.01,2013-06-11 22:53:00,
2013-06-11 18:54:00,82.9,76.1,29.99,South,180,2.2,2.2,80,0.00,,---,0.43,VWS V13.01,2013-06-11 22:54:00,
2013-06-11 18:55:00,82.9,76.1,29.99,SE,135,0.0,0.0,80,0.00,,---,0.43,VWS V13.01,2013-06-11 22:55:00,
2013-06-11 18:57:00,82.7,75.9,29.99,East,90,5.3,5.3,80,0.00,,---,0.43,VWS V13.01,2013-06-11 22:57:00,
2013-06-11 18:58:00,82.7,75.9,29.99,ENE,68,4.4,4.4,80,0.00,,---,0.43,VWS V13.01,2013-06-11 22:58:00,
2013-06-11 18:59:00,82.7,75.9,29.99,NE,45,3.8,3.8,80,0.00,,---,0.43,VWS V13.01,2013-06-11 22:59:00,
2013-06-11 19:00:00,82.7,75.9,29.99,ENE,68,3.5,3.5,80,0.00,,---,0.43,VWS V13.01,2013-06-11 23:00:00,
2013-06-11 19:02:00,82.5,75.7,29.99,NE,45,6.0,6.0,80,0.00,,---,0.43,VWS V13.01,2013-06-11 23:02:00,
2013-06-11 19:03:00,82.5,75.7,29.99,East,90,3.8,3.8,80,0.00,,---,0.43,VWS V13.01,2013-06-11 23:03:00,
2013-06-11 19:04:00,82.5,75.7,29.99,SSW,202,2.0,2.0,80,0.00,,---,0.43,VWS V13.01,2013-06-11 23:04:00,
2013-06-11 19:05:00,82.5,75.7,29.99,SSE,158,7.6,7.6,80,0.00,,---,0.43,VWS V13.01,2013-06-11 23:05:00,
2013-06-11 19:07:00,82.5,75.7,29.99,East,90,6.0,6.0,80,0.00,,---,0.43,VWS V13.01,2013-06-11 23:07:00,
2013-06-11 19:08:00,82.5,75.7,29.99,ESE,112,0.0,0.0,80,0.00,,---,0.43,VWS V13.01,2013-06-11 23:08:00,
2013-06-11 19:09:00,82.5,75.7,29.99,NNE,22,8.9,8.9,80,0.00,,---,0.43,VWS V13.01,2013-06-11 23:09:00,
2013-06-11 19:10:00,82.5,75.7,29.99,ESE,112,1.5,1.5,80,0.00,,---,0.43,VWS V13.01,2013-06-11 23:10:00,
2013-06-11 19:11:00,82.5,75.7,29.99,ENE,68,4.0,4.0,80,0.00,,---,0.43,VWS V13.01,2013-06-11 23:11:00,
2013-06-11 19:12:00,82.4,75.6,29.99,ESE,112,4.2,4.2,80,0.00,,---,0.43,VWS V13.01,2013-06-11 23:12:00,
2013-06-11 19:13:00,82.4,75.6,29.99,SE,135,4.0,4.2,80,0.00,,---,0.43,VWS V13.01,2013-06-11 23:13:00,
2013-06-11 19:14:00,82.4,75.6,29.99,SE,135,4.0,4.0,80,0.00,,---,0.43,VWS V13.01,2013-06-11 23:14:00,
2013-06-11 19:15:00,82.4,75.6,29.99,East,90,4.9,4.9,80,0.00,,---,0.43,VWS V13.01,2013-06-11 23:15:00,
2013-06-11 19:17:00,82.2,75.4,29.99,ENE,68,5.5,5.5,80,0.00,,---,0.43,VWS V13.01,2013-06-11 23:17:00,
2013-06-11 19:18:00,82.2,75.4,30.00,NE,45,0.0,0.0,80,0.00,,---,0.43,VWS V13.01,2013-06-11 23:18:00,
2013-06-11 19:19:00,82.2,75.4,29.99,NNE,22,5.8,5.8,80,0.00,,---,0.43,VWS V13.01,2013-06-11 23:19:00,
2013-06-11 19:20:00,82.2,75.4,29.99,East,90,0.8,0.8,80,0.00,,---,0.43,VWS V13.01,2013-06-11 23:20:00,
2013-06-11 19:22:00,82.2,75.8,29.99,ESE,112,2.4,2.4,81,0.00,,---,0.43,VWS V13.01,2013-06-11 23:22:00,
2013-06-11 19:23:00,82.2,75.8,29.99,ENE,68,3.8,3.8,81,0.00,,---,0.43,VWS V13.01,2013-06-11 23:23:00,
2013-06-11 19:24:00,82.2,75.8,29.99,ENE,68,3.8,3.8,81,0.00,,---,0.43,VWS V13.01,2013-06-11 23:24:00,
2013-06-11 19:25:00,82.2,75.8,29.99,ESE,112,2.2,2.2,81,0.00,,---,0.43,VWS V13.01,2013-06-11 23:25:00,
2013-06-11 19:27:00,82.2,75.8,30.00,ESE,112,4.4,4.4,81,0.00,,---,0.43,VWS V13.01,2013-06-11 23:27:00,
2013-06-11 19:28:00,82.2,75.8,30.00,ENE,68,4.0,4.0,81,0.00,,---,0.43,VWS V13.01,2013-06-11 23:28:00,
2013-06-11 19:29:00,82.2,75.8,30.00,ESE,112,2.2,2.2,81,0.00,,---,0.43,VWS V13.01,2013-06-11 23:29:00,
2013-06-11 19:30:00,82.2,75.8,30.00,ENE,68,9.1,9.1,81,0.00,,---,0.43,VWS V13.01,2013-06-11 23:30:00,
2013-06-11 19:32:00,82.2,75.8,30.00,ENE,68,0.8,0.8,81,0.00,,---,0.43,VWS V13.01,2013-06-11 23:32:00,
2013-06-11 19:33:00,82.2,75.8,30.00,ENE,68,4.0,4.0,81,0.00,,---,0.43,VWS V13.01,2013-06-11 23:33:00,
2013-06-11 19:34:00,82.2,75.8,30.00,SE,135,1.3,1.3,81,0.00,,---,0.43,VWS V13.01,2013-06-11 23:34:00,
2013-06-11 19:35:00,82.2,75.4,30.00,ESE,112,3.1,3.1,80,0.00,,---,0.43,VWS V13.01,2013-06-11 23:35:00,
2013-06-11 19:37:00,82.2,75.4,29.99,ESE,112,3.5,3.5,80,0.00,,---,0.43,VWS V13.01,2013-06-11 23:37:00,
2013-06-11 19:38:00,82.2,75.4,29.99,ESE,112,2.2,2.2,80,0.00,,---,0.43,VWS V13.01,2013-06-11 23:38:00,
2013-06-11 19:39:00,82.2,75.4,29.99,East,90,1.5,1.5,80,0.00,,---,0.43,VWS V13.01,2013-06-11 23:39:00,
2013-06-11 19:40:00,82.2,75.4,30.00,SE,135,5.3,5.3,80,0.00,,---,0.43,VWS V13.01,2013-06-11 23:40:00,
2013-06-11 19:42:00,82.2,75.4,30.00,ENE,68,5.1,5.1,80,0.00,,---,0.43,VWS V13.01,2013-06-11 23:42:00,
2013-06-11 19:43:00,82.2,75.4,30.00,NNE,22,1.7,1.7,80,0.00,,---,0.43,VWS V13.01,2013-06-11 23:43:00,
2013-06-11 19:44:00,82.2,75.4,30.00,East,90,7.1,7.1,80,0.00,,---,0.43,VWS V13.01,2013-06-11 23:44:00,
2013-06-11 19:45:00,82.2,75.4,30.00,ESE,112,1.3,1.3,80,0.00,,---,0.43,VWS V13.01,2013-06-11 23:45:00,
2013-06-11 19:47:00,82.2,75.8,30.00,NE,45,1.5,1.5,81,0.00,,---,0.43,VWS V13.01,2013-06-11 23:47:00,
2013-06-11 19:48:00,82.2,75.8,30.00,ENE,68,5.3,5.3,81,0.00,,---,0.43,VWS V13.01,2013-06-11 23:48:00,
2013-06-11 19:49:00,82.2,75.8,30.00,ESE,112,0.0,0.0,81,0.00,,---,0.43,VWS V13.01,2013-06-11 23:49:00,
2013-06-11 19:50:00,82.0,75.6,30.00,South,180,2.2,2.2,81,0.00,,---,0.43,VWS V13.01,2013-06-11 23:50:00,
2013-06-11 19:52:00,82.0,75.6,30.00,SE,135,3.1,3.1,81,0.00,,---,0.43,VWS V13.01,2013-06-11 23:52:00,
2013-06-11 19:53:00,82.2,75.8,30.00,East,90,8.0,8.0,81,0.00,,---,0.43,VWS V13.01,2013-06-11 23:53:00,
2013-06-11 19:54:00,82.2,75.8,30.00,East,90,8.0,8.0,81,0.00,,---,0.43,VWS V13.01,2013-06-11 23:54:00,
2013-06-11 19:55:00,82.2,75.8,30.00,NE,45,8.0,8.0,81,0.00,,---,0.43,VWS V13.01,2013-06-11 23:55:00,
2013-06-11 19:57:00,82.2,75.8,30.00,ESE,112,12.9,12.9,81,0.00,,---,0.43,VWS V13.01,2013-06-11 23:57:00,
2013-06-11 19:58:00,82.2,75.4,30.01,ENE,68,2.4,2.4,80,0.00,,---,0.43,VWS V13.01,2013-06-11 23:58:00,
2013-06-11 19:59:00,82.2,75.4,30.01,ENE,68,2.4,2.4,80,0.00,,---,0.43,VWS V13.01,2013-06-11 23:59:00,
2013-06-11 20:01:00,82.2,75.4,30.00,ESE,112,7.3,7.3,80,0.00,,---,0.43,VWS V13.01,2013-06-12 00:01:00,
2013-06-11 20:02:00,82.0,75.2,30.00,ESE,112,0.6,0.6,80,0.00,,---,0.43,VWS V13.01,2013-06-12 00:02:00,
2013-06-11 20:03:00,82.0,75.2,30.00,ENE,68,7.1,7.1,80,0.00,,---,0.43,VWS V13.01,2013-06-12 00:03:00,
2013-06-11 20:04:00,82.0,75.2,30.00,ENE,68,7.1,7.1,80,0.00,,---,0.43,VWS V13.01,2013-06-12 00:04:00,
2013-06-11 20:05:00,82.0,75.2,30.01,SE,135,3.1,3.1,80,0.00,,---,0.43,VWS V13.01,2013-06-12 00:05:00,
2013-06-11 20:06:00,82.0,75.6,30.01,WSW,248,0.0,0.0,81,0.00,,---,0.43,VWS V13.01,2013-06-12 00:06:00,
2013-06-11 20:08:00,82.0,75.6,30.01,East,90,10.7,10.7,81,0.00,,---,0.43,VWS V13.01,2013-06-12 00:08:00,
2013-06-11 20:09:00,82.0,75.6,30.01,East,90,7.1,7.1,81,0.00,,---,0.43,VWS V13.01,2013-06-12 00:09:00,
2013-06-11 20:10:00,82.0,75.6,30.01,NNE,22,3.5,3.5,81,0.00,,---,0.43,VWS V13.01,2013-06-12 00:10:00,
2013-06-11 20:11:00,82.0,75.6,30.01,East,90,4.0,4.0,81,0.00,,---,0.43,VWS V13.01,2013-06-12 00:11:00,
2013-06-11 20:13:00,82.0,75.6,30.00,SE,135,0.0,0.0,81,0.00,,---,0.43,VWS V13.01,2013-06-12 00:13:00,
2013-06-11 20:14:00,82.0,75.6,30.01,ESE,112,0.0,0.0,81,0.00,,---,0.43,VWS V13.01,2013-06-12 00:14:00,
2013-06-11 20:15:00,82.0,75.6,30.01,ESE,112,2.4,2.4,81,0.00,,---,0.43,VWS V13.01,2013-06-12 00:15:00,
2013-06-11 20:16:00,82.0,75.6,30.00,ENE,68,0.0,0.0,81,0.00,,---,0.43,VWS V13.01,2013-06-12 00:16:00,
2013-06-11 20:18:00,82.0,75.6,30.01,SE,135,3.5,3.5,81,0.00,,---,0.43,VWS V13.01,2013-06-12 00:18:00,
2013-06-11 20:19:00,82.0,75.6,30.01,ESE,112,6.4,6.4,81,0.00,,---,0.43,VWS V13.01,2013-06-12 00:19:00,
2013-06-11 20:20:00,82.0,75.6,30.01,ENE,68,7.3,7.3,81,0.00,,---,0.43,VWS V13.01,2013-06-12 00:20:00,
2013-06-11 20:22:00,82.0,75.6,30.00,East,90,5.1,5.1,81,0.00,,---,0.43,VWS V13.01,2013-06-12 00:22:00,
2013-06-11 20:23:00,82.0,75.6,30.01,ESE,112,0.8,0.8,81,0.00,,---,0.43,VWS V13.01,2013-06-12 00:23:00,
2013-06-11 20:24:00,82.0,75.6,30.01,ENE,68,7.1,7.1,81,0.00,,---,0.43,VWS V13.01,2013-06-12 00:24:00,
2013-06-11 20:25:00,82.0,75.6,30.01,East,90,5.1,5.1,81,0.00,,---,0.43,VWS V13.01,2013-06-12 00:25:00,
2013-06-11 20:27:00,82.0,75.6,30.01,SE,135,9.1,9.1,81,0.00,,---,0.43,VWS V13.01,2013-06-12 00:27:00,
2013-06-11 20:28:00,82.0,75.6,30.01,South,180,4.6,4.6,81,0.00,,---,0.43,VWS V13.01,2013-06-12 00:28:00,
2013-06-11 20:29:00,82.0,75.6,30.01,SSE,158,4.4,4.4,81,0.00,,---,0.43,VWS V13.01,2013-06-12 00:29:00,
2013-06-11 20:30:00,82.0,75.6,30.01,SE,135,7.3,7.3,81,0.00,,---,0.43,VWS V13.01,2013-06-12 00:30:00,
2013-06-11 20:32:00,82.0,75.2,30.01,SSE,158,6.2,6.2,80,0.00,,---,0.43,VWS V13.01,2013-06-12 00:32:00,
2013-06-11 20:33:00,81.8,75.0,30.01,SSE,158,6.2,6.2,80,0.00,,---,0.43,VWS V13.01,2013-06-12 00:33:00,
2013-06-11 20:34:00,81.6,74.5,30.02,SSE,158,5.3,5.3,79,0.00,,---,0.43,VWS V13.01,2013-06-12 00:34:00,
2013-06-11 20:35:00,81.6,74.5,30.01,SSE,158,4.4,4.4,79,0.00,,---,0.43,VWS V13.01,2013-06-12 00:35:00,
2013-06-11 20:37:00,81.6,74.5,30.01,SSE,158,3.5,3.5,79,0.00,,---,0.43,VWS V13.01,2013-06-12 00:37:00,
2013-06-11 20:38:00,81.5,74.4,30.01,SE,135,2.4,2.4,79,0.00,,---,0.43,VWS V13.01,2013-06-12 00:38:00,
2013-06-11 20:39:00,81.5,74.4,30.02,SE,135,7.8,7.8,79,0.00,,---,0.43,VWS V13.01,2013-06-12 00:39:00,
2013-06-11 20:40:00,81.3,74.2,30.01,SE,135,4.4,4.4,79,0.00,,---,0.43,VWS V13.01,2013-06-12 00:40:00,
2013-06-11 20:42:00,81.3,74.2,30.02,SE,135,4.4,4.4,79,0.00,,---,0.43,VWS V13.01,2013-06-12 00:42:00,
2013-06-11 20:43:00,81.1,74.0,30.02,SE,135,5.8,5.8,79,0.00,,---,0.43,VWS V13.01,2013-06-12 00:43:00,
2013-06-11 20:44:00,81.1,74.3,30.01,ESE,112,1.1,1.1,80,0.00,,---,0.43,VWS V13.01,2013-06-12 00:44:00,
2013-06-11 20:45:00,81.1,74.3,30.01,ESE,112,0.0,0.0,80,0.00,,---,0.43,VWS V13.01,2013-06-12 00:45:00,
2013-06-11 20:47:00,80.9,74.2,30.01,SE,135,2.0,2.0,80,0.00,,---,0.43,VWS V13.01,2013-06-12 00:47:00,
2013-06-11 20:48:00,80.9,74.2,30.01,East,90,0.0,0.0,80,0.00,,---,0.43,VWS V13.01,2013-06-12 00:48:00,
2013-06-11 20:49:00,80.9,74.2,30.02,SE,135,1.5,1.5,80,0.00,,---,0.43,VWS V13.01,2013-06-12 00:49:00,
2013-06-11 20:50:00,80.9,74.2,30.02,SE,135,1.5,1.5,80,0.00,,---,0.43,VWS V13.01,2013-06-12 00:50:00,
2013-06-11 20:52:00,80.7,74.0,30.02,South,180,3.8,3.8,80,0.00,,---,0.43,VWS V13.01,2013-06-12 00:52:00,
2013-06-11 20:53:00,80.7,74.0,30.02,South,180,3.8,3.8,80,0.00,,---,0.43,VWS V13.01,2013-06-12 00:53:00,
2013-06-11 20:54:00,80.9,74.2,30.01,SE,135,6.2,6.2,80,0.00,,---,0.43,VWS V13.01,2013-06-12 00:54:00,
2013-06-11 20:55:00,80.7,74.0,30.01,SSE,158,2.9,2.9,80,0.00,,---,0.43,VWS V13.01,2013-06-12 00:55:00,
2013-06-11 20:58:00,80.7,74.0,30.01,SE,135,0.8,0.8,80,0.00,,---,0.43,VWS V13.01,2013-06-12 00:58:00,
2013-06-11 20:59:00,80.7,74.0,30.01,ESE,112,0.0,0.0,80,0.00,,---,0.43,VWS V13.01,2013-06-12 00:59:00,
2013-06-11 21:00:00,80.7,74.0,30.01,ESE,112,4.4,4.4,80,0.00,,---,0.43,VWS V13.01,2013-06-12 01:00:00,
2013-06-11 21:03:00,80.7,74.3,30.02,SE,135,0.6,0.6,81,0.00,,---,0.43,VWS V13.01,2013-06-12 01:03:00,
2013-06-11 21:04:00,80.7,74.3,30.02,SE,135,4.2,4.2,81,0.00,,---,0.43,VWS V13.01,2013-06-12 01:04:00,
2013-06-11 21:05:00,80.7,74.3,30.02,ESE,112,0.0,0.0,81,0.00,,---,0.43,VWS V13.01,2013-06-12 01:05:00,
2013-06-11 21:08:00,80.7,74.3,30.01,SE,135,1.5,1.5,81,0.00,,---,0.43,VWS V13.01,2013-06-12 01:08:00,
2013-06-11 21:09:00,80.7,74.7,30.01,East,90,4.4,4.4,82,0.00,,---,0.43,VWS V13.01,2013-06-12 01:09:00,
2013-06-11 21:10:00,80.7,74.7,30.02,SE,135,0.0,0.0,82,0.00,,---,0.43,VWS V13.01,2013-06-12 01:10:00,
2013-06-11 21:13:00,80.9,74.9,30.02,ESE,112,2.9,2.9,82,0.00,,---,0.43,VWS V13.01,2013-06-12 01:13:00,
2013-06-11 21:14:00,80.9,74.9,30.01,SE,135,2.2,2.2,82,0.00,,---,0.43,VWS V13.01,2013-06-12 01:14:00,
2013-06-11 21:15:00,80.9,75.3,30.02,East,90,5.5,5.5,83,0.00,,---,0.43,VWS V13.01,2013-06-12 01:15:00,
2013-06-11 21:16:00,80.9,75.3,30.02,SE,135,0.0,0.0,83,0.00,,---,0.43,VWS V13.01,2013-06-12 01:16:00,
2013-06-11 21:18:00,80.9,75.3,30.02,SE,135,0.0,0.0,83,0.00,,---,0.43,VWS V13.01,2013-06-12 01:18:00,
2013-06-11 21:19:00,80.9,75.3,30.01,South,180,3.5,3.5,83,0.00,,---,0.43,VWS V13.01,2013-06-12 01:19:00,
2013-06-11 21:20:00,80.9,75.3,30.01,ESE,112,2.0,2.0,83,0.00,,---,0.43,VWS V13.01,2013-06-12 01:20:00,
2013-06-11 21:23:00,80.9,75.3,30.01,ENE,68,0.0,0.0,83,0.00,,---,0.43,VWS V13.01,2013-06-12 01:23:00,
2013-06-11 21:24:00,80.9,75.3,30.01,SE,135,2.2,2.2,83,0.00,,---,0.43,VWS V13.01,2013-06-12 01:24:00,
2013-06-11 21:25:00,80.9,75.3,30.01,ESE,112,0.0,0.0,83,0.00,,---,0.43,VWS V13.01,2013-06-12 01:25:00,
2013-06-11 21:26:00,80.9,75.3,30.01,ENE,68,0.0,0.0,83,0.00,,---,0.43,VWS V13.01,2013-06-12 01:26:00,
2013-06-11 21:28:00,80.9,75.3,30.02,ENE,68,0.0,0.0,83,0.00,,---,0.43,VWS V13.01,2013-06-12 01:28:00,
2013-06-11 21:29:00,80.9,75.3,30.02,ENE,68,0.0,0.0,83,0.00,,---,0.43,VWS V13.01,2013-06-12 01:29:00,
2013-06-11 21:30:00,80.9,75.3,30.02,ESE,112,0.0,0.0,83,0.00,,---,0.43,VWS V13.01,2013-06-12 01:30:00,
2013-06-11 21:31:00,81.1,75.4,30.02,SSE,158,0.0,0.0,83,0.00,,---,0.43,VWS V13.01,2013-06-12 01:31:00,
2013-06-11 21:33:00,81.1,75.4,30.02,SE,135,4.2,4.2,83,0.00,,---,0.43,VWS V13.01,2013-06-12 01:33:00,
2013-06-11 21:34:00,81.1,75.4,30.02,SE,135,4.2,4.2,83,0.00,,---,0.43,VWS V13.01,2013-06-12 01:34:00,
2013-06-11 21:35:00,81.1,75.4,30.01,SE,135,6.4,6.4,83,0.00,,---,0.43,VWS V13.01,2013-06-12 01:35:00,
2013-06-11 21:36:00,81.1,75.4,30.01,SE,135,1.3,1.3,83,0.00,,---,0.43,VWS V13.01,2013-06-12 01:36:00,
2013-06-11 21:38:00,80.9,75.3,30.02,SSE,158,3.1,3.1,83,0.00,,---,0.43,VWS V13.01,2013-06-12 01:38:00,
2013-06-11 21:39:00,80.9,75.3,30.02,SSE,158,3.1,3.1,83,0.00,,---,0.43,VWS V13.01,2013-06-12 01:39:00,
2013-06-11 21:40:00,81.1,75.4,30.02,SSE,158,0.6,0.6,83,0.00,,---,0.43,VWS V13.01,2013-06-12 01:40:00,
2013-06-11 21:41:00,81.1,75.8,30.02,SSE,158,0.0,0.0,84,0.00,,---,0.43,VWS V13.01,2013-06-12 01:41:00,
2013-06-11 21:43:00,80.9,75.6,30.02,ESE,112,2.6,2.6,84,0.00,,---,0.43,VWS V13.01,2013-06-12 01:43:00,
2013-06-11 21:44:00,80.9,75.6,30.02,ESE,112,2.6,2.6,84,0.00,,---,0.43,VWS V13.01,2013-06-12 01:44:00,
2013-06-11 21:45:00,80.9,75.6,30.02,SE,135,0.0,0.0,84,0.00,,---,0.43,VWS V13.01,2013-06-12 01:45:00,
2013-06-11 21:46:00,80.9,75.6,30.02,East,90,3.1,3.1,84,0.00,,---,0.43,VWS V13.01,2013-06-12 01:46:00,
2013-06-11 21:49:00,80.9,75.6,30.02,SSW,202,2.0,2.0,84,0.00,,---,0.43,VWS V13.01,2013-06-12 01:49:00,
2013-06-11 21:50:00,80.9,75.6,30.02,South,180,3.5,3.5,84,0.00,,---,0.43,VWS V13.01,2013-06-12 01:50:00,
2013-06-11 21:51:00,80.9,75.6,30.02,ESE,112,0.0,0.0,84,0.00,,---,0.43,VWS V13.01,2013-06-12 01:51:00,
2013-06-11 21:54:00,80.9,75.6,30.02,South,180,0.0,0.0,84,0.00,,---,0.43,VWS V13.01,2013-06-12 01:54:00,
2013-06-11 21:55:00,80.9,75.6,30.02,SE,135,0.0,0.0,84,0.00,,---,0.43,VWS V13.01,2013-06-12 01:55:00,
2013-06-11 21:56:00,80.9,75.6,30.02,ENE,68,0.0,0.0,84,0.00,,---,0.43,VWS V13.01,2013-06-12 01:56:00,
2013-06-11 21:59:00,81.1,75.8,30.02,SSE,158,1.3,1.3,84,0.00,,---,0.43,VWS V13.01,2013-06-12 01:59:00,
2013-06-11 22:00:00,80.9,75.6,30.02,ESE,112,7.6,7.6,84,0.00,,---,0.43,VWS V13.01,2013-06-12 02:00:00,
2013-06-11 22:01:00,81.1,75.8,30.02,SE,135,3.1,3.1,84,0.00,,---,0.43,VWS V13.01,2013-06-12 02:01:00,
2013-06-11 22:04:00,80.9,75.6,30.02,ESE,112,1.5,1.5,84,0.00,,---,0.43,VWS V13.01,2013-06-12 02:04:00,
2013-06-11 22:05:00,80.9,75.6,30.02,South,180,0.0,0.0,84,0.00,,---,0.43,VWS V13.01,2013-06-12 02:05:00,
2013-06-11 22:06:00,80.9,75.6,30.02,SE,135,0.0,0.0,84,0.00,,---,0.43,VWS V13.01,2013-06-12 02:06:00,
2013-06-11 22:09:00,80.9,75.6,30.02,SE,135,2.0,2.0,84,0.00,,---,0.43,VWS V13.01,2013-06-12 02:09:00,
2013-06-11 22:10:00,81.1,75.8,30.02,SE,135,0.0,0.0,84,0.00,,---,0.43,VWS V13.01,2013-06-12 02:10:00,
2013-06-11 22:12:00,81.1,75.8,30.03,SE,135,0.8,0.8,84,0.00,,---,0.43,VWS V13.01,2013-06-12 02:12:00,
2013-06-11 22:14:00,80.9,75.6,30.03,South,180,1.3,1.3,84,0.00,,---,0.43,VWS V13.01,2013-06-12 02:14:00,
2013-06-11 22:15:00,80.9,75.6,30.03,ENE,68,0.0,0.0,84,0.00,,---,0.43,VWS V13.01,2013-06-12 02:15:00,
2013-06-11 22:17:00,81.1,75.8,30.03,South,180,3.8,3.8,84,0.00,,---,0.43,VWS V13.01,2013-06-12 02:17:00,
2013-06-11 22:19:00,80.9,75.6,30.03,SE,135,2.0,2.0,84,0.00,,---,0.43,VWS V13.01,2013-06-12 02:19:00,
2013-06-11 22:20:00,81.1,75.8,30.02,ESE,112,5.1,5.1,84,0.00,,---,0.43,VWS V13.01,2013-06-12 02:20:00,
2013-06-11 22:22:00,80.9,75.6,30.03,ESE,112,2.0,2.0,84,0.00,,---,0.43,VWS V13.01,2013-06-12 02:22:00,
2013-06-11 22:24:00,80.9,75.6,30.03,SE,135,0.0,0.0,84,0.00,,---,0.43,VWS V13.01,2013-06-12 02:24:00,
2013-06-11 22:25:00,80.9,76.0,30.03,East,90,0.0,0.0,85,0.00,,---,0.43,VWS V13.01,2013-06-12 02:25:00,
2013-06-11 22:27:00,80.9,76.0,30.03,ESE,112,0.0,0.0,85,0.00,,---,0.43,VWS V13.01,2013-06-12 02:27:00,
2013-06-11 22:29:00,80.9,76.0,30.03,ESE,112,2.2,2.2,85,0.00,,---,0.43,VWS V13.01,2013-06-12 02:29:00,
2013-06-11 22:30:00,80.9,76.0,30.03,SE,135,0.0,0.0,85,0.00,,---,0.43,VWS V13.01,2013-06-12 02:30:00,
2013-06-11 22:32:00,80.9,76.0,30.03,SE,135,2.4,2.4,85,0.00,,---,0.43,VWS V13.01,2013-06-12 02:32:00,
2013-06-11 22:34:00,80.9,76.0,30.03,SE,135,1.3,1.3,85,0.00,,---,0.43,VWS V13.01,2013-06-12 02:34:00,
2013-06-11 22:35:00,80.9,76.0,30.03,SE,135,0.0,0.0,85,0.00,,---,0.43,VWS V13.01,2013-06-12 02:35:00,
2013-06-11 22:37:00,80.9,76.0,30.03,SE,135,0.0,0.0,85,0.00,,---,0.43,VWS V13.01,2013-06-12 02:37:00,
2013-06-11 22:39:00,80.9,76.0,30.03,East,90,0.0,0.0,85,0.00,,---,0.43,VWS V13.01,2013-06-12 02:39:00,
2013-06-11 22:40:00,80.9,76.0,30.03,SE,135,5.3,5.3,85,0.00,,---,0.43,VWS V13.01,2013-06-12 02:40:00,
2013-06-11 22:42:00,80.9,76.0,30.03,SE,135,1.7,1.7,85,0.00,,---,0.43,VWS V13.01,2013-06-12 02:42:00,
2013-06-11 22:44:00,80.9,76.0,30.03,SSE,158,2.0,2.0,85,0.00,,---,0.43,VWS V13.01,2013-06-12 02:44:00,
2013-06-11 22:45:00,80.9,76.0,30.04,ESE,112,4.6,4.6,85,0.00,,---,0.43,VWS V13.01,2013-06-12 02:45:00,
2013-06-11 22:46:00,80.9,76.0,30.04,SE,135,0.0,0.0,85,0.00,,---,0.43,VWS V13.01,2013-06-12 02:46:00,
2013-06-11 22:47:00,80.9,76.0,30.04,ESE,112,1.5,1.5,85,0.00,,---,0.43,VWS V13.01,2013-06-12 02:47:00,
2013-06-11 22:49:00,80.9,76.0,30.03,South,180,0.8,0.8,85,0.00,,---,0.43,VWS V13.01,2013-06-12 02:49:00,
2013-06-11 22:50:00,80.9,76.0,30.03,SSE,158,5.1,5.1,85,0.00,,---,0.43,VWS V13.01,2013-06-12 02:50:00,
2013-06-11 22:51:00,80.7,75.8,30.03,NE,45,2.4,2.4,85,0.00,,---,0.43,VWS V13.01,2013-06-12 02:51:00,
2013-06-11 22:52:00,80.7,75.8,30.03,NE,45,2.4,2.4,85,0.00,,---,0.43,VWS V13.01,2013-06-12 02:52:00,
2013-06-11 22:54:00,80.7,75.8,30.03,South,180,0.0,0.0,85,0.00,,---,0.43,VWS V13.01,2013-06-12 02:54:00,
2013-06-11 22:55:00,80.7,75.8,30.03,South,180,4.6,4.6,85,0.00,,---,0.43,VWS V13.01,2013-06-12 02:55:00,
2013-06-11 22:57:00,80.7,75.8,30.03,ENE,68,0.0,0.0,85,0.00,,---,0.43,VWS V13.01,2013-06-12 02:57:00,
2013-06-11 22:59:00,80.7,75.8,30.03,SE,135,2.2,2.2,85,0.00,,---,0.43,VWS V13.01,2013-06-12 02:59:00,
2013-06-11 23:00:00,80.7,75.8,30.03,SE,135,2.4,2.4,85,0.00,,---,0.43,VWS V13.01,2013-06-12 03:00:00,
2013-06-11 23:01:00,80.7,75.8,30.03,NE,45,1.5,1.5,85,0.00,,---,0.43,VWS V13.01,2013-06-12 03:01:00,
2013-06-11 23:02:00,80.7,75.8,30.04,SE,135,2.2,2.2,85,0.00,,---,0.43,VWS V13.01,2013-06-12 03:02:00,
2013-06-11 23:04:00,80.7,75.8,30.04,ESE,112,1.3,1.3,85,0.00,,---,0.43,VWS V13.01,2013-06-12 03:04:00,
2013-06-11 23:05:00,80.7,75.8,30.04,SSE,158,2.2,2.2,85,0.00,,---,0.43,VWS V13.01,2013-06-12 03:05:00,
2013-06-11 23:06:00,80.7,75.8,30.04,SE,135,0.0,0.0,85,0.00,,---,0.43,VWS V13.01,2013-06-12 03:06:00,
2013-06-11 23:07:00,80.7,75.8,30.04,ENE,68,0.8,0.8,85,0.00,,---,0.43,VWS V13.01,2013-06-12 03:07:00,
2013-06-11 23:09:00,80.7,75.8,30.03,SE,135,0.6,0.6,85,0.00,,---,0.43,VWS V13.01,2013-06-12 03:09:00,
2013-06-11 23:10:00,80.7,75.4,30.03,East,90,0.0,0.0,84,0.00,,---,0.43,VWS V13.01,2013-06-12 03:10:00,
2013-06-11 23:11:00,80.7,75.4,30.03,East,90,0.0,0.0,84,0.00,,---,0.43,VWS V13.01,2013-06-12 03:11:00,
2013-06-11 23:12:00,80.7,75.4,30.03,ESE,112,1.7,1.7,84,0.00,,---,0.43,VWS V13.01,2013-06-12 03:12:00,
2013-06-11 23:14:00,80.7,75.4,30.03,ESE,112,0.0,0.0,84,0.00,,---,0.43,VWS V13.01,2013-06-12 03:14:00,
2013-06-11 23:15:00,80.7,75.4,30.03,ESE,112,0.0,0.0,84,0.00,,---,0.43,VWS V13.01,2013-06-12 03:15:00,
2013-06-11 23:16:00,80.7,75.4,30.03,SSE,158,4.0,4.0,84,0.00,,---,0.43,VWS V13.01,2013-06-12 03:16:00,
2013-06-11 23:17:00,80.7,75.4,30.03,SSE,158,4.0,4.0,84,0.00,,---,0.43,VWS V13.01,2013-06-12 03:17:00,
2013-06-11 23:19:00,80.7,75.4,30.04,ESE,112,2.0,2.0,84,0.00,,---,0.43,VWS V13.01,2013-06-12 03:19:00,
2013-06-11 23:21:00,80.7,75.4,30.04,ESE,112,0.0,0.0,84,0.00,,---,0.43,VWS V13.01,2013-06-12 03:21:00,
2013-06-11 23:22:00,80.9,75.6,30.04,ESE,112,0.0,0.0,84,0.00,,---,0.43,VWS V13.01,2013-06-12 03:22:00,